<?xml version="1.0" encoding="UTF-8" standalone="no" ?>
<gpx xmlns="http://www.topografix.com/GPX/1/1" xmlns:xsi="http://www.w3.org/2001/XMLSchema-instance" xsi:schemaLocation="http://www.topografix.com/GPX/1/1 http://www.topografix.com/GPX/1/1/gpx.xsd" version="1.1" creator="VisuGPX - https://www.visugpx.com">
  <metadata>
    <name>06/07/2016 Vaison - Mollans sur Ouvèze et retour</name>
    <desc><![CDATA[Itinéraire de vacances en vélo électrique (VTC).]]></desc>
  </metadata>
  <trk>
    <name><![CDATA[Tracé 6 juil. 2016 11:09:55]]></name>
    <trkseg>
      <trkpt lat="44.23648" lon="5.09001">
        <ele>217.24617688149</ele>
        <time>2016-07-06T09:09:55Z</time>
      </trkpt>
      <trkpt lat="44.2364" lon="5.08996">
        <ele>220.4735292113</ele>
        <time>2016-07-06T09:10:41Z</time>
      </trkpt>
      <trkpt lat="44.23636" lon="5.08989">
        <ele>223.5121163354</ele>
        <time>2016-07-06T09:11:30Z</time>
      </trkpt>
      <trkpt lat="44.23629" lon="5.08975">
        <ele>221.93760294998</ele>
        <time>2016-07-06T09:11:35Z</time>
      </trkpt>
      <trkpt lat="44.23626" lon="5.0896">
        <ele>220.65740979901</ele>
        <time>2016-07-06T09:11:40Z</time>
      </trkpt>
      <trkpt lat="44.23619" lon="5.08952">
        <ele>220.42856000411</ele>
        <time>2016-07-06T09:11:45Z</time>
      </trkpt>
      <trkpt lat="44.23613" lon="5.08944">
        <ele>220.31333125262</ele>
        <time>2016-07-06T09:11:50Z</time>
      </trkpt>
      <trkpt lat="44.23606" lon="5.08942">
        <ele>220.07901958438</ele>
        <time>2016-07-06T09:11:55Z</time>
      </trkpt>
      <trkpt lat="44.23591" lon="5.08948">
        <ele>222.77296159577</ele>
        <time>2016-07-06T09:12:00Z</time>
      </trkpt>
      <trkpt lat="44.23575" lon="5.08956">
        <ele>224.04415996922</ele>
        <time>2016-07-06T09:12:04Z</time>
      </trkpt>
      <trkpt lat="44.23561" lon="5.08963">
        <ele>224.55103700989</ele>
        <time>2016-07-06T09:12:08Z</time>
      </trkpt>
      <trkpt lat="44.23544" lon="5.08972">
        <ele>225.08876934087</ele>
        <time>2016-07-06T09:12:13Z</time>
      </trkpt>
      <trkpt lat="44.23536" lon="5.08974">
        <ele>226.59131615215</ele>
        <time>2016-07-06T09:12:29Z</time>
      </trkpt>
      <trkpt lat="44.23528" lon="5.0898">
        <ele>227.40036829345</ele>
        <time>2016-07-06T09:12:36Z</time>
      </trkpt>
      <trkpt lat="44.23519" lon="5.08984">
        <ele>227.75348524775</ele>
        <time>2016-07-06T09:12:41Z</time>
      </trkpt>
      <trkpt lat="44.23514" lon="5.08994">
        <ele>228.77326017035</ele>
        <time>2016-07-06T09:12:53Z</time>
      </trkpt>
      <trkpt lat="44.23506" lon="5.08999">
        <ele>228.76238822823</ele>
        <time>2016-07-06T09:13:01Z</time>
      </trkpt>
      <trkpt lat="44.23503" lon="5.09009">
        <ele>228.53729001842</ele>
        <time>2016-07-06T09:13:16Z</time>
      </trkpt>
      <trkpt lat="44.23503" lon="5.09019">
        <ele>228.71223730648</ele>
        <time>2016-07-06T09:13:22Z</time>
      </trkpt>
      <trkpt lat="44.23505" lon="5.09035">
        <ele>229.89040991653</ele>
        <time>2016-07-06T09:13:26Z</time>
      </trkpt>
      <trkpt lat="44.23499" lon="5.09054">
        <ele>232.26287902468</ele>
        <time>2016-07-06T09:13:30Z</time>
      </trkpt>
      <trkpt lat="44.23486" lon="5.09067">
        <ele>232.50222741912</ele>
        <time>2016-07-06T09:13:35Z</time>
      </trkpt>
      <trkpt lat="44.23473" lon="5.09072">
        <ele>232.22851911496</ele>
        <time>2016-07-06T09:13:39Z</time>
      </trkpt>
      <trkpt lat="44.23466" lon="5.09075">
        <ele>232.07015913741</ele>
        <time>2016-07-06T09:13:43Z</time>
      </trkpt>
      <trkpt lat="44.23454" lon="5.09077">
        <ele>231.91799591508</ele>
        <time>2016-07-06T09:13:47Z</time>
      </trkpt>
      <trkpt lat="44.23447" lon="5.09072">
        <ele>231.48744606683</ele>
        <time>2016-07-06T09:13:51Z</time>
      </trkpt>
      <trkpt lat="44.23447" lon="5.09058">
        <ele>230.73672896357</ele>
        <time>2016-07-06T09:13:55Z</time>
      </trkpt>
      <trkpt lat="44.23445" lon="5.09032">
        <ele>227.28670927089</ele>
        <time>2016-07-06T09:14:00Z</time>
      </trkpt>
      <trkpt lat="44.2344" lon="5.09011">
        <ele>226.60141737227</ele>
        <time>2016-07-06T09:14:04Z</time>
      </trkpt>
      <trkpt lat="44.23436" lon="5.08997">
        <ele>224.99169048835</ele>
        <time>2016-07-06T09:14:09Z</time>
      </trkpt>
      <trkpt lat="44.23447" lon="5.08986">
        <ele>223.95717851989</ele>
        <time>2016-07-06T09:14:14Z</time>
      </trkpt>
      <trkpt lat="44.2345" lon="5.08976">
        <ele>223.73337538874</ele>
        <time>2016-07-06T09:14:18Z</time>
      </trkpt>
      <trkpt lat="44.23459" lon="5.08971">
        <ele>223.72586202111</ele>
        <time>2016-07-06T09:14:23Z</time>
      </trkpt>
      <trkpt lat="44.23467" lon="5.08967">
        <ele>222.21422924742</ele>
        <time>2016-07-06T09:14:45Z</time>
      </trkpt>
      <trkpt lat="44.23459" lon="5.0897">
        <ele>220.50303605655</ele>
        <time>2016-07-06T09:15:14Z</time>
      </trkpt>
      <trkpt lat="44.23454" lon="5.0898">
        <ele>220.81416525666</ele>
        <time>2016-07-06T09:15:19Z</time>
      </trkpt>
      <trkpt lat="44.23444" lon="5.0898">
        <ele>220.75562772291</ele>
        <time>2016-07-06T09:15:23Z</time>
      </trkpt>
      <trkpt lat="44.23436" lon="5.08976">
        <ele>219.39329530541</ele>
        <time>2016-07-06T09:15:30Z</time>
      </trkpt>
      <trkpt lat="44.23431" lon="5.08968">
        <ele>218.40449756705</ele>
        <time>2016-07-06T09:15:36Z</time>
      </trkpt>
      <trkpt lat="44.23432" lon="5.0895">
        <ele>217.20213689594</ele>
        <time>2016-07-06T09:15:41Z</time>
      </trkpt>
      <trkpt lat="44.23421" lon="5.08929">
        <ele>216.25515496241</ele>
        <time>2016-07-06T09:15:45Z</time>
      </trkpt>
      <trkpt lat="44.23411" lon="5.08909">
        <ele>214.48095709813</ele>
        <time>2016-07-06T09:15:50Z</time>
      </trkpt>
      <trkpt lat="44.23396" lon="5.08901">
        <ele>209.47161230617</ele>
        <time>2016-07-06T09:15:55Z</time>
      </trkpt>
      <trkpt lat="44.23382" lon="5.0891">
        <ele>203.11642282435</ele>
        <time>2016-07-06T09:15:59Z</time>
      </trkpt>
      <trkpt lat="44.23368" lon="5.08929">
        <ele>205.50495021102</ele>
        <time>2016-07-06T09:16:04Z</time>
      </trkpt>
      <trkpt lat="44.2336" lon="5.08935">
        <ele>206.34440458604</ele>
        <time>2016-07-06T09:16:08Z</time>
      </trkpt>
      <trkpt lat="44.23346" lon="5.08951">
        <ele>210.81023315861</ele>
        <time>2016-07-06T09:16:12Z</time>
      </trkpt>
      <trkpt lat="44.23319" lon="5.08971">
        <ele>217.09083637924</ele>
        <time>2016-07-06T09:16:17Z</time>
      </trkpt>
      <trkpt lat="44.23296" lon="5.08981">
        <ele>219.26635019592</ele>
        <time>2016-07-06T09:16:21Z</time>
      </trkpt>
      <trkpt lat="44.23264" lon="5.08994">
        <ele>214.80054184835</ele>
        <time>2016-07-06T09:16:26Z</time>
      </trkpt>
      <trkpt lat="44.23238" lon="5.08996">
        <ele>212.08761488156</ele>
        <time>2016-07-06T09:16:30Z</time>
      </trkpt>
      <trkpt lat="44.23212" lon="5.08991">
        <ele>208.55648138051</ele>
        <time>2016-07-06T09:16:34Z</time>
      </trkpt>
      <trkpt lat="44.23181" lon="5.08982">
        <ele>205.90004128428</ele>
        <time>2016-07-06T09:16:39Z</time>
      </trkpt>
      <trkpt lat="44.23156" lon="5.0898">
        <ele>204.96223688813</ele>
        <time>2016-07-06T09:16:43Z</time>
      </trkpt>
      <trkpt lat="44.23131" lon="5.09002">
        <ele>203.31405459601</ele>
        <time>2016-07-06T09:16:48Z</time>
      </trkpt>
      <trkpt lat="44.2312" lon="5.09036">
        <ele>209.09222227402</ele>
        <time>2016-07-06T09:16:53Z</time>
      </trkpt>
      <trkpt lat="44.2312" lon="5.0908">
        <ele>217.55108506268</ele>
        <time>2016-07-06T09:16:58Z</time>
      </trkpt>
      <trkpt lat="44.23118" lon="5.0912">
        <ele>221.01542250883</ele>
        <time>2016-07-06T09:17:02Z</time>
      </trkpt>
      <trkpt lat="44.23117" lon="5.09155">
        <ele>223.56499945855</ele>
        <time>2016-07-06T09:17:06Z</time>
      </trkpt>
      <trkpt lat="44.23113" lon="5.09197">
        <ele>226.74023484377</ele>
        <time>2016-07-06T09:17:11Z</time>
      </trkpt>
      <trkpt lat="44.23111" lon="5.09229">
        <ele>228.93318750173</ele>
        <time>2016-07-06T09:17:15Z</time>
      </trkpt>
      <trkpt lat="44.23108" lon="5.09267">
        <ele>230.49920546214</ele>
        <time>2016-07-06T09:17:20Z</time>
      </trkpt>
      <trkpt lat="44.23106" lon="5.09298">
        <ele>232.00575717742</ele>
        <time>2016-07-06T09:17:24Z</time>
      </trkpt>
      <trkpt lat="44.23104" lon="5.09338">
        <ele>232.29070785221</ele>
        <time>2016-07-06T09:17:29Z</time>
      </trkpt>
      <trkpt lat="44.23102" lon="5.09372">
        <ele>232.96710530595</ele>
        <time>2016-07-06T09:17:33Z</time>
      </trkpt>
      <trkpt lat="44.231" lon="5.09405">
        <ele>232.72457504974</ele>
        <time>2016-07-06T09:17:37Z</time>
      </trkpt>
      <trkpt lat="44.23095" lon="5.09449">
        <ele>231.55904928736</ele>
        <time>2016-07-06T09:17:42Z</time>
      </trkpt>
      <trkpt lat="44.23087" lon="5.09493">
        <ele>231.08645413662</ele>
        <time>2016-07-06T09:17:47Z</time>
      </trkpt>
      <trkpt lat="44.2308" lon="5.09521">
        <ele>230.96895567431</ele>
        <time>2016-07-06T09:17:51Z</time>
      </trkpt>
      <trkpt lat="44.23074" lon="5.09549">
        <ele>230.98569900038</ele>
        <time>2016-07-06T09:17:55Z</time>
      </trkpt>
      <trkpt lat="44.23067" lon="5.09579">
        <ele>233.01182952259</ele>
        <time>2016-07-06T09:17:59Z</time>
      </trkpt>
      <trkpt lat="44.23059" lon="5.09616">
        <ele>235.95716236897</ele>
        <time>2016-07-06T09:18:04Z</time>
      </trkpt>
      <trkpt lat="44.23053" lon="5.09641">
        <ele>237.55630678776</ele>
        <time>2016-07-06T09:18:08Z</time>
      </trkpt>
      <trkpt lat="44.23036" lon="5.09663">
        <ele>238.36217155666</ele>
        <time>2016-07-06T09:18:12Z</time>
      </trkpt>
      <trkpt lat="44.23009" lon="5.09692">
        <ele>236.64049841464</ele>
        <time>2016-07-06T09:18:17Z</time>
      </trkpt>
      <trkpt lat="44.22981" lon="5.0973">
        <ele>233.0718830484</ele>
        <time>2016-07-06T09:18:22Z</time>
      </trkpt>
      <trkpt lat="44.22963" lon="5.09761">
        <ele>230.11084775017</ele>
        <time>2016-07-06T09:18:26Z</time>
      </trkpt>
      <trkpt lat="44.22943" lon="5.09789">
        <ele>229.43243344532</ele>
        <time>2016-07-06T09:18:30Z</time>
      </trkpt>
      <trkpt lat="44.22922" lon="5.09812">
        <ele>229.27537282172</ele>
        <time>2016-07-06T09:18:34Z</time>
      </trkpt>
      <trkpt lat="44.229" lon="5.09833">
        <ele>227.67363357233</ele>
        <time>2016-07-06T09:18:38Z</time>
      </trkpt>
      <trkpt lat="44.22878" lon="5.09858">
        <ele>225.72696685166</ele>
        <time>2016-07-06T09:18:42Z</time>
      </trkpt>
      <trkpt lat="44.22857" lon="5.09894">
        <ele>225.72242777887</ele>
        <time>2016-07-06T09:18:47Z</time>
      </trkpt>
      <trkpt lat="44.22837" lon="5.09934">
        <ele>226.38391313552</ele>
        <time>2016-07-06T09:18:52Z</time>
      </trkpt>
      <trkpt lat="44.22807" lon="5.0996">
        <ele>227.64547745359</ele>
        <time>2016-07-06T09:18:57Z</time>
      </trkpt>
      <trkpt lat="44.22777" lon="5.09986">
        <ele>225.97184842906</ele>
        <time>2016-07-06T09:19:01Z</time>
      </trkpt>
      <trkpt lat="44.22755" lon="5.10023">
        <ele>223.63550808157</ele>
        <time>2016-07-06T09:19:05Z</time>
      </trkpt>
      <trkpt lat="44.22734" lon="5.10068">
        <ele>223.806161631</ele>
        <time>2016-07-06T09:19:10Z</time>
      </trkpt>
      <trkpt lat="44.22713" lon="5.10106">
        <ele>226.49948417849</ele>
        <time>2016-07-06T09:19:14Z</time>
      </trkpt>
      <trkpt lat="44.22686" lon="5.10147">
        <ele>228.50021859389</ele>
        <time>2016-07-06T09:19:19Z</time>
      </trkpt>
      <trkpt lat="44.22674" lon="5.10179">
        <ele>229.25796898561</ele>
        <time>2016-07-06T09:19:23Z</time>
      </trkpt>
      <trkpt lat="44.22665" lon="5.10212">
        <ele>230.50397505322</ele>
        <time>2016-07-06T09:19:27Z</time>
      </trkpt>
      <trkpt lat="44.22657" lon="5.1024">
        <ele>232.45495521337</ele>
        <time>2016-07-06T09:19:31Z</time>
      </trkpt>
      <trkpt lat="44.22648" lon="5.10269">
        <ele>234.41580253964</ele>
        <time>2016-07-06T09:19:35Z</time>
      </trkpt>
      <trkpt lat="44.22636" lon="5.10305">
        <ele>236.793732414</ele>
        <time>2016-07-06T09:19:40Z</time>
      </trkpt>
      <trkpt lat="44.22629" lon="5.10344">
        <ele>240.30281905749</ele>
        <time>2016-07-06T09:19:45Z</time>
      </trkpt>
      <trkpt lat="44.22632" lon="5.10378">
        <ele>241.46034732683</ele>
        <time>2016-07-06T09:19:49Z</time>
      </trkpt>
      <trkpt lat="44.22642" lon="5.10411">
        <ele>241.52342569888</ele>
        <time>2016-07-06T09:19:53Z</time>
      </trkpt>
      <trkpt lat="44.22659" lon="5.10442">
        <ele>240.10374473926</ele>
        <time>2016-07-06T09:19:58Z</time>
      </trkpt>
      <trkpt lat="44.22678" lon="5.10468">
        <ele>240.64925010364</ele>
        <time>2016-07-06T09:20:03Z</time>
      </trkpt>
      <trkpt lat="44.22695" lon="5.10494">
        <ele>241.97181513588</ele>
        <time>2016-07-06T09:20:08Z</time>
      </trkpt>
      <trkpt lat="44.22695" lon="5.10519">
        <ele>244.48886651137</ele>
        <time>2016-07-06T09:20:12Z</time>
      </trkpt>
      <trkpt lat="44.22682" lon="5.10538">
        <ele>245.89107327818</ele>
        <time>2016-07-06T09:20:16Z</time>
      </trkpt>
      <trkpt lat="44.22661" lon="5.10554">
        <ele>246.30128655532</ele>
        <time>2016-07-06T09:20:20Z</time>
      </trkpt>
      <trkpt lat="44.22637" lon="5.10574">
        <ele>243.74716770169</ele>
        <time>2016-07-06T09:20:25Z</time>
      </trkpt>
      <trkpt lat="44.22629" lon="5.10595">
        <ele>243.49188722842</ele>
        <time>2016-07-06T09:20:29Z</time>
      </trkpt>
      <trkpt lat="44.22622" lon="5.10621">
        <ele>245.69019366963</ele>
        <time>2016-07-06T09:20:33Z</time>
      </trkpt>
      <trkpt lat="44.22614" lon="5.10654">
        <ele>248.44241423032</ele>
        <time>2016-07-06T09:20:38Z</time>
      </trkpt>
      <trkpt lat="44.22606" lon="5.1068">
        <ele>250.08051738443</ele>
        <time>2016-07-06T09:20:42Z</time>
      </trkpt>
      <trkpt lat="44.22597" lon="5.1071">
        <ele>251.66911677349</ele>
        <time>2016-07-06T09:20:47Z</time>
      </trkpt>
      <trkpt lat="44.22592" lon="5.10734">
        <ele>253.81289315405</ele>
        <time>2016-07-06T09:20:51Z</time>
      </trkpt>
      <trkpt lat="44.22586" lon="5.10765">
        <ele>255.0158021607</ele>
        <time>2016-07-06T09:20:56Z</time>
      </trkpt>
      <trkpt lat="44.22583" lon="5.10794">
        <ele>254.43578333632</ele>
        <time>2016-07-06T09:21:00Z</time>
      </trkpt>
      <trkpt lat="44.22583" lon="5.10822">
        <ele>255.06850024696</ele>
        <time>2016-07-06T09:21:04Z</time>
      </trkpt>
      <trkpt lat="44.22583" lon="5.10848">
        <ele>256.60853038706</ele>
        <time>2016-07-06T09:21:08Z</time>
      </trkpt>
      <trkpt lat="44.22579" lon="5.10877">
        <ele>259.74685850983</ele>
        <time>2016-07-06T09:21:12Z</time>
      </trkpt>
      <trkpt lat="44.22567" lon="5.109">
        <ele>262.60643539414</ele>
        <time>2016-07-06T09:21:16Z</time>
      </trkpt>
      <trkpt lat="44.22547" lon="5.10917">
        <ele>261.96945590099</ele>
        <time>2016-07-06T09:21:20Z</time>
      </trkpt>
      <trkpt lat="44.22526" lon="5.10932">
        <ele>260.31494546916</ele>
        <time>2016-07-06T09:21:24Z</time>
      </trkpt>
      <trkpt lat="44.22507" lon="5.10944">
        <ele>257.36662752364</ele>
        <time>2016-07-06T09:21:28Z</time>
      </trkpt>
      <trkpt lat="44.22481" lon="5.10961">
        <ele>254.74245801739</ele>
        <time>2016-07-06T09:21:33Z</time>
      </trkpt>
      <trkpt lat="44.22455" lon="5.10982">
        <ele>253.18423777886</ele>
        <time>2016-07-06T09:21:38Z</time>
      </trkpt>
      <trkpt lat="44.22435" lon="5.11008">
        <ele>254.39878494592</ele>
        <time>2016-07-06T09:21:43Z</time>
      </trkpt>
      <trkpt lat="44.22422" lon="5.11042">
        <ele>255.58923726426</ele>
        <time>2016-07-06T09:21:48Z</time>
      </trkpt>
      <trkpt lat="44.22415" lon="5.1107">
        <ele>257.14909288893</ele>
        <time>2016-07-06T09:21:52Z</time>
      </trkpt>
      <trkpt lat="44.22408" lon="5.11108">
        <ele>261.44692390139</ele>
        <time>2016-07-06T09:21:57Z</time>
      </trkpt>
      <trkpt lat="44.22402" lon="5.11139">
        <ele>263.36554692996</ele>
        <time>2016-07-06T09:22:01Z</time>
      </trkpt>
      <trkpt lat="44.22394" lon="5.11171">
        <ele>264.530719115</ele>
        <time>2016-07-06T09:22:05Z</time>
      </trkpt>
      <trkpt lat="44.22385" lon="5.11214">
        <ele>264.49812499385</ele>
        <time>2016-07-06T09:22:10Z</time>
      </trkpt>
      <trkpt lat="44.22378" lon="5.11246">
        <ele>263.6219392325</ele>
        <time>2016-07-06T09:22:14Z</time>
      </trkpt>
      <trkpt lat="44.22359" lon="5.11289">
        <ele>264.38661109739</ele>
        <time>2016-07-06T09:22:19Z</time>
      </trkpt>
      <trkpt lat="44.2234" lon="5.11321">
        <ele>263.76363979539</ele>
        <time>2016-07-06T09:22:23Z</time>
      </trkpt>
      <trkpt lat="44.22338" lon="5.11366">
        <ele>261.80143708697</ele>
        <time>2016-07-06T09:22:27Z</time>
      </trkpt>
      <trkpt lat="44.22345" lon="5.11415">
        <ele>259.60019348471</ele>
        <time>2016-07-06T09:22:31Z</time>
      </trkpt>
      <trkpt lat="44.22354" lon="5.11482">
        <ele>256.08165553529</ele>
        <time>2016-07-06T09:22:36Z</time>
      </trkpt>
      <trkpt lat="44.22369" lon="5.1154">
        <ele>252.52344671661</ele>
        <time>2016-07-06T09:22:40Z</time>
      </trkpt>
      <trkpt lat="44.22398" lon="5.11614">
        <ele>247.36975832223</ele>
        <time>2016-07-06T09:22:45Z</time>
      </trkpt>
      <trkpt lat="44.22423" lon="5.1167">
        <ele>242.16156935912</ele>
        <time>2016-07-06T09:22:49Z</time>
      </trkpt>
      <trkpt lat="44.22444" lon="5.11738">
        <ele>239.65667513858</ele>
        <time>2016-07-06T09:22:54Z</time>
      </trkpt>
      <trkpt lat="44.22455" lon="5.11789">
        <ele>239.34691781402</ele>
        <time>2016-07-06T09:22:58Z</time>
      </trkpt>
      <trkpt lat="44.22465" lon="5.11844">
        <ele>238.52935688646</ele>
        <time>2016-07-06T09:23:03Z</time>
      </trkpt>
      <trkpt lat="44.22472" lon="5.11882">
        <ele>238.12193759046</ele>
        <time>2016-07-06T09:23:07Z</time>
      </trkpt>
      <trkpt lat="44.22479" lon="5.1192">
        <ele>236.9149989552</ele>
        <time>2016-07-06T09:23:11Z</time>
      </trkpt>
      <trkpt lat="44.22485" lon="5.11957">
        <ele>235.53200185623</ele>
        <time>2016-07-06T09:23:15Z</time>
      </trkpt>
      <trkpt lat="44.22493" lon="5.11994">
        <ele>235.91675107551</ele>
        <time>2016-07-06T09:23:19Z</time>
      </trkpt>
      <trkpt lat="44.22503" lon="5.1203">
        <ele>236.41731954399</ele>
        <time>2016-07-06T09:23:23Z</time>
      </trkpt>
      <trkpt lat="44.22518" lon="5.12073">
        <ele>236.940176951</ele>
        <time>2016-07-06T09:23:28Z</time>
      </trkpt>
      <trkpt lat="44.22534" lon="5.12115">
        <ele>236.69693407479</ele>
        <time>2016-07-06T09:23:33Z</time>
      </trkpt>
      <trkpt lat="44.22547" lon="5.12148">
        <ele>235.9138903558</ele>
        <time>2016-07-06T09:23:37Z</time>
      </trkpt>
      <trkpt lat="44.22562" lon="5.12191">
        <ele>235.16460640938</ele>
        <time>2016-07-06T09:23:42Z</time>
      </trkpt>
      <trkpt lat="44.22575" lon="5.12224">
        <ele>234.52867239053</ele>
        <time>2016-07-06T09:23:46Z</time>
      </trkpt>
      <trkpt lat="44.2259" lon="5.12255">
        <ele>232.29783748747</ele>
        <time>2016-07-06T09:23:50Z</time>
      </trkpt>
      <trkpt lat="44.22606" lon="5.12281">
        <ele>233.45953879152</ele>
        <time>2016-07-06T09:23:54Z</time>
      </trkpt>
      <trkpt lat="44.22626" lon="5.1231">
        <ele>233.95776884586</ele>
        <time>2016-07-06T09:23:58Z</time>
      </trkpt>
      <trkpt lat="44.22644" lon="5.12338">
        <ele>234.42959740166</ele>
        <time>2016-07-06T09:24:02Z</time>
      </trkpt>
      <trkpt lat="44.22665" lon="5.12373">
        <ele>234.98148578948</ele>
        <time>2016-07-06T09:24:07Z</time>
      </trkpt>
      <trkpt lat="44.22678" lon="5.12398">
        <ele>237.46658384392</ele>
        <time>2016-07-06T09:24:11Z</time>
      </trkpt>
      <trkpt lat="44.22693" lon="5.12429">
        <ele>239.41905089434</ele>
        <time>2016-07-06T09:24:15Z</time>
      </trkpt>
      <trkpt lat="44.2271" lon="5.12472">
        <ele>240.48532760183</ele>
        <time>2016-07-06T09:24:20Z</time>
      </trkpt>
      <trkpt lat="44.22721" lon="5.12509">
        <ele>238.6315050343</ele>
        <time>2016-07-06T09:24:24Z</time>
      </trkpt>
      <trkpt lat="44.22731" lon="5.12544">
        <ele>237.06768902569</ele>
        <time>2016-07-06T09:24:28Z</time>
      </trkpt>
      <trkpt lat="44.22737" lon="5.1258">
        <ele>236.49202800468</ele>
        <time>2016-07-06T09:24:32Z</time>
      </trkpt>
      <trkpt lat="44.2274" lon="5.12617">
        <ele>236.70652055048</ele>
        <time>2016-07-06T09:24:36Z</time>
      </trkpt>
      <trkpt lat="44.2274" lon="5.12654">
        <ele>237.28032901007</ele>
        <time>2016-07-06T09:24:40Z</time>
      </trkpt>
      <trkpt lat="44.22735" lon="5.12687">
        <ele>238.83105962876</ele>
        <time>2016-07-06T09:24:44Z</time>
      </trkpt>
      <trkpt lat="44.22726" lon="5.12721">
        <ele>240.48322841005</ele>
        <time>2016-07-06T09:24:48Z</time>
      </trkpt>
      <trkpt lat="44.22715" lon="5.12755">
        <ele>242.30106597519</ele>
        <time>2016-07-06T09:24:52Z</time>
      </trkpt>
      <trkpt lat="44.22702" lon="5.12799">
        <ele>242.98822616669</ele>
        <time>2016-07-06T09:24:57Z</time>
      </trkpt>
      <trkpt lat="44.227" lon="5.12833">
        <ele>243.25150663379</ele>
        <time>2016-07-06T09:25:01Z</time>
      </trkpt>
      <trkpt lat="44.22704" lon="5.12867">
        <ele>244.43674521899</ele>
        <time>2016-07-06T09:25:05Z</time>
      </trkpt>
      <trkpt lat="44.22693" lon="5.12903">
        <ele>247.27866701381</ele>
        <time>2016-07-06T09:25:10Z</time>
      </trkpt>
      <trkpt lat="44.22676" lon="5.12937">
        <ele>250.18856344736</ele>
        <time>2016-07-06T09:25:15Z</time>
      </trkpt>
      <trkpt lat="44.22672" lon="5.12973">
        <ele>250.96670742267</ele>
        <time>2016-07-06T09:25:19Z</time>
      </trkpt>
      <trkpt lat="44.22674" lon="5.13009">
        <ele>250.61048325237</ele>
        <time>2016-07-06T09:25:23Z</time>
      </trkpt>
      <trkpt lat="44.22673" lon="5.13043">
        <ele>251.2551099282</ele>
        <time>2016-07-06T09:25:27Z</time>
      </trkpt>
      <trkpt lat="44.22669" lon="5.13078">
        <ele>253.62459122578</ele>
        <time>2016-07-06T09:25:31Z</time>
      </trkpt>
      <trkpt lat="44.22666" lon="5.13114">
        <ele>255.20911838119</ele>
        <time>2016-07-06T09:25:35Z</time>
      </trkpt>
      <trkpt lat="44.22665" lon="5.13149">
        <ele>256.28855064927</ele>
        <time>2016-07-06T09:25:39Z</time>
      </trkpt>
      <trkpt lat="44.22682" lon="5.1319">
        <ele>253.22589279501</ele>
        <time>2016-07-06T09:25:44Z</time>
      </trkpt>
      <trkpt lat="44.227" lon="5.13213">
        <ele>250.28576072348</ele>
        <time>2016-07-06T09:25:48Z</time>
      </trkpt>
      <trkpt lat="44.22722" lon="5.1323">
        <ele>246.72254215799</ele>
        <time>2016-07-06T09:25:52Z</time>
      </trkpt>
      <trkpt lat="44.22743" lon="5.13244">
        <ele>243.6011460754</ele>
        <time>2016-07-06T09:25:56Z</time>
      </trkpt>
      <trkpt lat="44.22764" lon="5.13258">
        <ele>241.96176996992</ele>
        <time>2016-07-06T09:26:00Z</time>
      </trkpt>
      <trkpt lat="44.22786" lon="5.13271">
        <ele>242.1868112304</ele>
        <time>2016-07-06T09:26:04Z</time>
      </trkpt>
      <trkpt lat="44.22807" lon="5.13285">
        <ele>242.94218703355</ele>
        <time>2016-07-06T09:26:08Z</time>
      </trkpt>
      <trkpt lat="44.22828" lon="5.13297">
        <ele>244.68590607922</ele>
        <time>2016-07-06T09:26:12Z</time>
      </trkpt>
      <trkpt lat="44.22849" lon="5.13309">
        <ele>246.20505946789</ele>
        <time>2016-07-06T09:26:16Z</time>
      </trkpt>
      <trkpt lat="44.22871" lon="5.13322">
        <ele>247.2008578448</ele>
        <time>2016-07-06T09:26:20Z</time>
      </trkpt>
      <trkpt lat="44.22894" lon="5.13325">
        <ele>247.51749273824</ele>
        <time>2016-07-06T09:26:25Z</time>
      </trkpt>
      <trkpt lat="44.22896" lon="5.13299">
        <ele>244.73724298575</ele>
        <time>2016-07-06T09:26:30Z</time>
      </trkpt>
      <trkpt lat="44.22892" lon="5.13276">
        <ele>239.82453783682</ele>
        <time>2016-07-06T09:26:34Z</time>
      </trkpt>
      <trkpt lat="44.22887" lon="5.13258">
        <ele>237.63069652403</ele>
        <time>2016-07-06T09:26:38Z</time>
      </trkpt>
      <trkpt lat="44.22882" lon="5.13242">
        <ele>237.55936682615</ele>
        <time>2016-07-06T09:26:42Z</time>
      </trkpt>
      <trkpt lat="44.22877" lon="5.1322">
        <ele>237.7744106387</ele>
        <time>2016-07-06T09:26:47Z</time>
      </trkpt>
      <trkpt lat="44.22872" lon="5.13201">
        <ele>238.04529817736</ele>
        <time>2016-07-06T09:26:51Z</time>
      </trkpt>
      <trkpt lat="44.22866" lon="5.13178">
        <ele>238.98017281651</ele>
        <time>2016-07-06T09:26:55Z</time>
      </trkpt>
      <trkpt lat="44.2286" lon="5.13162">
        <ele>239.98836048262</ele>
        <time>2016-07-06T09:26:59Z</time>
      </trkpt>
      <trkpt lat="44.22852" lon="5.13136">
        <ele>241.74686691185</ele>
        <time>2016-07-06T09:27:04Z</time>
      </trkpt>
      <trkpt lat="44.22844" lon="5.13105">
        <ele>246.43787227608</ele>
        <time>2016-07-06T09:27:09Z</time>
      </trkpt>
      <trkpt lat="44.22834" lon="5.13076">
        <ele>247.09135031383</ele>
        <time>2016-07-06T09:27:13Z</time>
      </trkpt>
      <trkpt lat="44.22822" lon="5.13051">
        <ele>247.40308776822</ele>
        <time>2016-07-06T09:27:17Z</time>
      </trkpt>
      <trkpt lat="44.22808" lon="5.13029">
        <ele>247.3998252941</ele>
        <time>2016-07-06T09:27:21Z</time>
      </trkpt>
      <trkpt lat="44.22791" lon="5.13001">
        <ele>248.03523447454</ele>
        <time>2016-07-06T09:27:26Z</time>
      </trkpt>
      <trkpt lat="44.22788" lon="5.12973">
        <ele>249.50768685627</ele>
        <time>2016-07-06T09:27:30Z</time>
      </trkpt>
      <trkpt lat="44.22819" lon="5.12959">
        <ele>247.07645903549</ele>
        <time>2016-07-06T09:27:35Z</time>
      </trkpt>
      <trkpt lat="44.22852" lon="5.12967">
        <ele>247.66320641507</ele>
        <time>2016-07-06T09:27:40Z</time>
      </trkpt>
      <trkpt lat="44.22877" lon="5.12987">
        <ele>250.38479781289</ele>
        <time>2016-07-06T09:27:44Z</time>
      </trkpt>
      <trkpt lat="44.22912" lon="5.13012">
        <ele>254.03697478546</ele>
        <time>2016-07-06T09:27:49Z</time>
      </trkpt>
      <trkpt lat="44.22952" lon="5.13032">
        <ele>255.78665834758</ele>
        <time>2016-07-06T09:27:54Z</time>
      </trkpt>
      <trkpt lat="44.22992" lon="5.1305">
        <ele>256.01399931915</ele>
        <time>2016-07-06T09:27:59Z</time>
      </trkpt>
      <trkpt lat="44.23037" lon="5.13056">
        <ele>257.07094814718</ele>
        <time>2016-07-06T09:28:04Z</time>
      </trkpt>
      <trkpt lat="44.23074" lon="5.13054">
        <ele>257.44440131402</ele>
        <time>2016-07-06T09:28:08Z</time>
      </trkpt>
      <trkpt lat="44.23108" lon="5.13044">
        <ele>255.6076485701</ele>
        <time>2016-07-06T09:28:12Z</time>
      </trkpt>
      <trkpt lat="44.23129" lon="5.13016">
        <ele>250.0733224089</ele>
        <time>2016-07-06T09:28:16Z</time>
      </trkpt>
      <trkpt lat="44.23129" lon="5.1298">
        <ele>241.47744219632</ele>
        <time>2016-07-06T09:28:20Z</time>
      </trkpt>
      <trkpt lat="44.23113" lon="5.12938">
        <ele>234.68312561185</ele>
        <time>2016-07-06T09:28:25Z</time>
      </trkpt>
      <trkpt lat="44.23108" lon="5.12907">
        <ele>232.72113817136</ele>
        <time>2016-07-06T09:28:29Z</time>
      </trkpt>
      <trkpt lat="44.23132" lon="5.12894">
        <ele>242.39091828961</ele>
        <time>2016-07-06T09:28:34Z</time>
      </trkpt>
      <trkpt lat="44.2316" lon="5.129">
        <ele>251.97719444198</ele>
        <time>2016-07-06T09:28:39Z</time>
      </trkpt>
      <trkpt lat="44.23183" lon="5.12902">
        <ele>253.88833539936</ele>
        <time>2016-07-06T09:28:43Z</time>
      </trkpt>
      <trkpt lat="44.23203" lon="5.12899">
        <ele>253.62973459143</ele>
        <time>2016-07-06T09:28:47Z</time>
      </trkpt>
      <trkpt lat="44.23226" lon="5.12894">
        <ele>253.60381306478</ele>
        <time>2016-07-06T09:28:52Z</time>
      </trkpt>
      <trkpt lat="44.23244" lon="5.12889">
        <ele>255.01020405982</ele>
        <time>2016-07-06T09:28:56Z</time>
      </trkpt>
      <trkpt lat="44.23264" lon="5.12886">
        <ele>256.95890833322</ele>
        <time>2016-07-06T09:29:01Z</time>
      </trkpt>
      <trkpt lat="44.23283" lon="5.12894">
        <ele>259.00938875277</ele>
        <time>2016-07-06T09:29:06Z</time>
      </trkpt>
      <trkpt lat="44.23299" lon="5.12905">
        <ele>261.19614062514</ele>
        <time>2016-07-06T09:29:10Z</time>
      </trkpt>
      <trkpt lat="44.2332" lon="5.12918">
        <ele>262.70060656445</ele>
        <time>2016-07-06T09:29:15Z</time>
      </trkpt>
      <trkpt lat="44.23337" lon="5.12917">
        <ele>262.21163185479</ele>
        <time>2016-07-06T09:29:19Z</time>
      </trkpt>
      <trkpt lat="44.23359" lon="5.12911">
        <ele>264.383747216</ele>
        <time>2016-07-06T09:29:24Z</time>
      </trkpt>
      <trkpt lat="44.23382" lon="5.12905">
        <ele>270.17869153736</ele>
        <time>2016-07-06T09:29:29Z</time>
      </trkpt>
      <trkpt lat="44.23403" lon="5.12901">
        <ele>274.19645005706</ele>
        <time>2016-07-06T09:29:34Z</time>
      </trkpt>
      <trkpt lat="44.23421" lon="5.12901">
        <ele>273.63749385755</ele>
        <time>2016-07-06T09:29:38Z</time>
      </trkpt>
      <trkpt lat="44.23438" lon="5.12905">
        <ele>272.65639066413</ele>
        <time>2016-07-06T09:29:42Z</time>
      </trkpt>
      <trkpt lat="44.23457" lon="5.12909">
        <ele>272.73653366634</ele>
        <time>2016-07-06T09:29:46Z</time>
      </trkpt>
      <trkpt lat="44.23478" lon="5.12915">
        <ele>276.38793169021</ele>
        <time>2016-07-06T09:29:50Z</time>
      </trkpt>
      <trkpt lat="44.23498" lon="5.1292">
        <ele>279.60650038594</ele>
        <time>2016-07-06T09:29:54Z</time>
      </trkpt>
      <trkpt lat="44.23522" lon="5.12923">
        <ele>282.42237364634</ele>
        <time>2016-07-06T09:29:59Z</time>
      </trkpt>
      <trkpt lat="44.23549" lon="5.12926">
        <ele>280.05067815881</ele>
        <time>2016-07-06T09:30:04Z</time>
      </trkpt>
      <trkpt lat="44.23577" lon="5.1292">
        <ele>278.5524232599</ele>
        <time>2016-07-06T09:30:09Z</time>
      </trkpt>
      <trkpt lat="44.23599" lon="5.12911">
        <ele>276.05702640821</ele>
        <time>2016-07-06T09:30:13Z</time>
      </trkpt>
      <trkpt lat="44.23623" lon="5.129">
        <ele>274.69603825017</ele>
        <time>2016-07-06T09:30:18Z</time>
      </trkpt>
      <trkpt lat="44.23649" lon="5.12887">
        <ele>275.49081800107</ele>
        <time>2016-07-06T09:30:23Z</time>
      </trkpt>
      <trkpt lat="44.23668" lon="5.12874">
        <ele>278.89805102564</ele>
        <time>2016-07-06T09:30:27Z</time>
      </trkpt>
      <trkpt lat="44.2369" lon="5.12858">
        <ele>284.32441175019</ele>
        <time>2016-07-06T09:30:32Z</time>
      </trkpt>
      <trkpt lat="44.2371" lon="5.12848">
        <ele>285.6250952408</ele>
        <time>2016-07-06T09:30:36Z</time>
      </trkpt>
      <trkpt lat="44.23732" lon="5.12851">
        <ele>285.2912691486</ele>
        <time>2016-07-06T09:30:40Z</time>
      </trkpt>
      <trkpt lat="44.23751" lon="5.12864">
        <ele>285.69816873131</ele>
        <time>2016-07-06T09:30:44Z</time>
      </trkpt>
      <trkpt lat="44.23774" lon="5.12882">
        <ele>288.31794739401</ele>
        <time>2016-07-06T09:30:49Z</time>
      </trkpt>
      <trkpt lat="44.23793" lon="5.12896">
        <ele>290.0622201783</ele>
        <time>2016-07-06T09:30:53Z</time>
      </trkpt>
      <trkpt lat="44.23812" lon="5.12911">
        <ele>291.87308541744</ele>
        <time>2016-07-06T09:30:57Z</time>
      </trkpt>
      <trkpt lat="44.23831" lon="5.12924">
        <ele>292.17870338901</ele>
        <time>2016-07-06T09:31:01Z</time>
      </trkpt>
      <trkpt lat="44.23854" lon="5.1294">
        <ele>293.46936805439</ele>
        <time>2016-07-06T09:31:06Z</time>
      </trkpt>
      <trkpt lat="44.23872" lon="5.12953">
        <ele>297.02537121431</ele>
        <time>2016-07-06T09:31:10Z</time>
      </trkpt>
      <trkpt lat="44.23892" lon="5.12966">
        <ele>299.38212910999</ele>
        <time>2016-07-06T09:31:14Z</time>
      </trkpt>
      <trkpt lat="44.2392" lon="5.12984">
        <ele>297.43882035889</ele>
        <time>2016-07-06T09:31:19Z</time>
      </trkpt>
      <trkpt lat="44.23939" lon="5.12998">
        <ele>295.59103137567</ele>
        <time>2016-07-06T09:31:23Z</time>
      </trkpt>
      <trkpt lat="44.23963" lon="5.13016">
        <ele>294.85812631034</ele>
        <time>2016-07-06T09:31:28Z</time>
      </trkpt>
      <trkpt lat="44.2398" lon="5.13028">
        <ele>294.00308217307</ele>
        <time>2016-07-06T09:31:32Z</time>
      </trkpt>
      <trkpt lat="44.23997" lon="5.13045">
        <ele>294.24741280245</ele>
        <time>2016-07-06T09:31:36Z</time>
      </trkpt>
      <trkpt lat="44.24017" lon="5.13057">
        <ele>293.87646773742</ele>
        <time>2016-07-06T09:31:40Z</time>
      </trkpt>
      <trkpt lat="44.24044" lon="5.13067">
        <ele>292.26888086253</ele>
        <time>2016-07-06T09:31:45Z</time>
      </trkpt>
      <trkpt lat="44.24072" lon="5.13071">
        <ele>290.18233541746</ele>
        <time>2016-07-06T09:31:50Z</time>
      </trkpt>
      <trkpt lat="44.24098" lon="5.1308">
        <ele>289.34281010889</ele>
        <time>2016-07-06T09:31:55Z</time>
      </trkpt>
      <trkpt lat="44.24123" lon="5.13094">
        <ele>291.31470540099</ele>
        <time>2016-07-06T09:32:00Z</time>
      </trkpt>
      <trkpt lat="44.24143" lon="5.13104">
        <ele>294.72496751947</ele>
        <time>2016-07-06T09:32:04Z</time>
      </trkpt>
      <trkpt lat="44.24169" lon="5.13118">
        <ele>300.0694928791</ele>
        <time>2016-07-06T09:32:09Z</time>
      </trkpt>
      <trkpt lat="44.24189" lon="5.13129">
        <ele>303.60363230399</ele>
        <time>2016-07-06T09:32:13Z</time>
      </trkpt>
      <trkpt lat="44.24209" lon="5.13138">
        <ele>304.76051080408</ele>
        <time>2016-07-06T09:32:17Z</time>
      </trkpt>
      <trkpt lat="44.24236" lon="5.13147">
        <ele>302.1761079867</ele>
        <time>2016-07-06T09:32:22Z</time>
      </trkpt>
      <trkpt lat="44.24261" lon="5.13156">
        <ele>299.19279725036</ele>
        <time>2016-07-06T09:32:27Z</time>
      </trkpt>
      <trkpt lat="44.24287" lon="5.13164">
        <ele>303.29492718426</ele>
        <time>2016-07-06T09:32:32Z</time>
      </trkpt>
      <trkpt lat="44.24309" lon="5.13171">
        <ele>307.56630239991</ele>
        <time>2016-07-06T09:32:36Z</time>
      </trkpt>
      <trkpt lat="44.24335" lon="5.13179">
        <ele>311.13030259106</ele>
        <time>2016-07-06T09:32:41Z</time>
      </trkpt>
      <trkpt lat="44.2436" lon="5.13186">
        <ele>312.75511690841</ele>
        <time>2016-07-06T09:32:46Z</time>
      </trkpt>
      <trkpt lat="44.24383" lon="5.13193">
        <ele>312.89741959409</ele>
        <time>2016-07-06T09:32:50Z</time>
      </trkpt>
      <trkpt lat="44.24404" lon="5.13199">
        <ele>314.87298896134</ele>
        <time>2016-07-06T09:32:54Z</time>
      </trkpt>
      <trkpt lat="44.24426" lon="5.13203">
        <ele>316.45901045377</ele>
        <time>2016-07-06T09:32:58Z</time>
      </trkpt>
      <trkpt lat="44.24448" lon="5.13199">
        <ele>315.0695544642</ele>
        <time>2016-07-06T09:33:02Z</time>
      </trkpt>
      <trkpt lat="44.24469" lon="5.1319">
        <ele>312.60413030188</ele>
        <time>2016-07-06T09:33:06Z</time>
      </trkpt>
      <trkpt lat="44.24496" lon="5.13187">
        <ele>309.51441562213</ele>
        <time>2016-07-06T09:33:11Z</time>
      </trkpt>
      <trkpt lat="44.2452" lon="5.13186">
        <ele>307.81964315379</ele>
        <time>2016-07-06T09:33:15Z</time>
      </trkpt>
      <trkpt lat="44.24541" lon="5.13183">
        <ele>310.69379911938</ele>
        <time>2016-07-06T09:33:19Z</time>
      </trkpt>
      <trkpt lat="44.24568" lon="5.13176">
        <ele>307.46596597306</ele>
        <time>2016-07-06T09:33:24Z</time>
      </trkpt>
      <trkpt lat="44.24594" lon="5.13179">
        <ele>307.95177864945</ele>
        <time>2016-07-06T09:33:28Z</time>
      </trkpt>
      <trkpt lat="44.24626" lon="5.13191">
        <ele>311.48480169912</ele>
        <time>2016-07-06T09:33:33Z</time>
      </trkpt>
      <trkpt lat="44.24651" lon="5.13197">
        <ele>310.92619237419</ele>
        <time>2016-07-06T09:33:37Z</time>
      </trkpt>
      <trkpt lat="44.24682" lon="5.13206">
        <ele>309.21231438005</ele>
        <time>2016-07-06T09:33:42Z</time>
      </trkpt>
      <trkpt lat="44.24706" lon="5.13216">
        <ele>307.39752079716</ele>
        <time>2016-07-06T09:33:46Z</time>
      </trkpt>
      <trkpt lat="44.24731" lon="5.13239">
        <ele>306.89399730282</ele>
        <time>2016-07-06T09:33:51Z</time>
      </trkpt>
      <trkpt lat="44.24754" lon="5.13258">
        <ele>306.82353328638</ele>
        <time>2016-07-06T09:33:55Z</time>
      </trkpt>
      <trkpt lat="44.24774" lon="5.13277">
        <ele>305.04980822145</ele>
        <time>2016-07-06T09:33:59Z</time>
      </trkpt>
      <trkpt lat="44.248" lon="5.133">
        <ele>303.22643797747</ele>
        <time>2016-07-06T09:34:04Z</time>
      </trkpt>
      <trkpt lat="44.24825" lon="5.13322">
        <ele>302.00111923552</ele>
        <time>2016-07-06T09:34:09Z</time>
      </trkpt>
      <trkpt lat="44.24844" lon="5.13342">
        <ele>301.53103215162</ele>
        <time>2016-07-06T09:34:13Z</time>
      </trkpt>
      <trkpt lat="44.24866" lon="5.13372">
        <ele>301.27349337431</ele>
        <time>2016-07-06T09:34:18Z</time>
      </trkpt>
      <trkpt lat="44.24887" lon="5.13403">
        <ele>301.2926707834</ele>
        <time>2016-07-06T09:34:23Z</time>
      </trkpt>
      <trkpt lat="44.24902" lon="5.1343">
        <ele>301.33511891558</ele>
        <time>2016-07-06T09:34:27Z</time>
      </trkpt>
      <trkpt lat="44.24919" lon="5.13467">
        <ele>302.90149563052</ele>
        <time>2016-07-06T09:34:32Z</time>
      </trkpt>
      <trkpt lat="44.24932" lon="5.13496">
        <ele>306.98579074222</ele>
        <time>2016-07-06T09:34:36Z</time>
      </trkpt>
      <trkpt lat="44.24951" lon="5.1352">
        <ele>310.1831079766</ele>
        <time>2016-07-06T09:34:40Z</time>
      </trkpt>
      <trkpt lat="44.24978" lon="5.13541">
        <ele>310.46104700142</ele>
        <time>2016-07-06T09:34:45Z</time>
      </trkpt>
      <trkpt lat="44.25004" lon="5.13562">
        <ele>309.7661348822</ele>
        <time>2016-07-06T09:34:50Z</time>
      </trkpt>
      <trkpt lat="44.25023" lon="5.13581">
        <ele>309.14273875614</ele>
        <time>2016-07-06T09:34:54Z</time>
      </trkpt>
      <trkpt lat="44.25041" lon="5.13601">
        <ele>309.82339886459</ele>
        <time>2016-07-06T09:34:58Z</time>
      </trkpt>
      <trkpt lat="44.2506" lon="5.13613">
        <ele>310.04922231396</ele>
        <time>2016-07-06T09:35:02Z</time>
      </trkpt>
      <trkpt lat="44.25079" lon="5.13618">
        <ele>310.20784901711</ele>
        <time>2016-07-06T09:35:06Z</time>
      </trkpt>
      <trkpt lat="44.251" lon="5.13621">
        <ele>312.73762720851</ele>
        <time>2016-07-06T09:35:11Z</time>
      </trkpt>
      <trkpt lat="44.25116" lon="5.13625">
        <ele>314.98850704913</ele>
        <time>2016-07-06T09:35:15Z</time>
      </trkpt>
      <trkpt lat="44.25133" lon="5.13634">
        <ele>317.34350494288</ele>
        <time>2016-07-06T09:35:20Z</time>
      </trkpt>
      <trkpt lat="44.25148" lon="5.13645">
        <ele>319.1161990951</ele>
        <time>2016-07-06T09:35:25Z</time>
      </trkpt>
      <trkpt lat="44.25164" lon="5.13656">
        <ele>323.00558921697</ele>
        <time>2016-07-06T09:35:29Z</time>
      </trkpt>
      <trkpt lat="44.25179" lon="5.13665">
        <ele>325.434679265</ele>
        <time>2016-07-06T09:35:33Z</time>
      </trkpt>
      <trkpt lat="44.25194" lon="5.13675">
        <ele>324.69050265565</ele>
        <time>2016-07-06T09:35:37Z</time>
      </trkpt>
      <trkpt lat="44.25211" lon="5.13683">
        <ele>324.49043240375</ele>
        <time>2016-07-06T09:35:42Z</time>
      </trkpt>
      <trkpt lat="44.25224" lon="5.13688">
        <ele>324.56617346188</ele>
        <time>2016-07-06T09:35:46Z</time>
      </trkpt>
      <trkpt lat="44.25239" lon="5.13695">
        <ele>326.82210202417</ele>
        <time>2016-07-06T09:35:50Z</time>
      </trkpt>
      <trkpt lat="44.25258" lon="5.13705">
        <ele>329.32651273042</ele>
        <time>2016-07-06T09:35:55Z</time>
      </trkpt>
      <trkpt lat="44.25273" lon="5.13712">
        <ele>330.55226216691</ele>
        <time>2016-07-06T09:35:59Z</time>
      </trkpt>
      <trkpt lat="44.25291" lon="5.13716">
        <ele>333.51289410917</ele>
        <time>2016-07-06T09:36:04Z</time>
      </trkpt>
      <trkpt lat="44.25309" lon="5.13714">
        <ele>334.1249027605</ele>
        <time>2016-07-06T09:36:09Z</time>
      </trkpt>
      <trkpt lat="44.25325" lon="5.13713">
        <ele>335.23798376202</ele>
        <time>2016-07-06T09:36:13Z</time>
      </trkpt>
      <trkpt lat="44.25345" lon="5.13711">
        <ele>334.09003646982</ele>
        <time>2016-07-06T09:36:18Z</time>
      </trkpt>
      <trkpt lat="44.2536" lon="5.13709">
        <ele>333.20121840323</ele>
        <time>2016-07-06T09:36:22Z</time>
      </trkpt>
      <trkpt lat="44.25379" lon="5.13708">
        <ele>333.41312398225</ele>
        <time>2016-07-06T09:36:27Z</time>
      </trkpt>
      <trkpt lat="44.25394" lon="5.13707">
        <ele>334.54866395465</ele>
        <time>2016-07-06T09:36:31Z</time>
      </trkpt>
      <trkpt lat="44.25415" lon="5.13707">
        <ele>335.77283286941</ele>
        <time>2016-07-06T09:36:36Z</time>
      </trkpt>
      <trkpt lat="44.25434" lon="5.13709">
        <ele>336.85638216532</ele>
        <time>2016-07-06T09:36:41Z</time>
      </trkpt>
      <trkpt lat="44.25449" lon="5.13711">
        <ele>336.74176662995</ele>
        <time>2016-07-06T09:36:45Z</time>
      </trkpt>
      <trkpt lat="44.25467" lon="5.1372">
        <ele>337.31712856229</ele>
        <time>2016-07-06T09:36:50Z</time>
      </trkpt>
      <trkpt lat="44.25478" lon="5.13734">
        <ele>337.53161585005</ele>
        <time>2016-07-06T09:36:54Z</time>
      </trkpt>
      <trkpt lat="44.25488" lon="5.1375">
        <ele>342.90670385834</ele>
        <time>2016-07-06T09:36:58Z</time>
      </trkpt>
      <trkpt lat="44.25497" lon="5.13769">
        <ele>347.97806053025</ele>
        <time>2016-07-06T09:37:02Z</time>
      </trkpt>
      <trkpt lat="44.2551" lon="5.13795">
        <ele>349.98652663795</ele>
        <time>2016-07-06T09:37:07Z</time>
      </trkpt>
      <trkpt lat="44.25519" lon="5.13813">
        <ele>349.81539462694</ele>
        <time>2016-07-06T09:37:11Z</time>
      </trkpt>
      <trkpt lat="44.25532" lon="5.13838">
        <ele>351.99752854718</ele>
        <time>2016-07-06T09:37:16Z</time>
      </trkpt>
      <trkpt lat="44.25544" lon="5.13869">
        <ele>352.8982293356</ele>
        <time>2016-07-06T09:37:21Z</time>
      </trkpt>
      <trkpt lat="44.25556" lon="5.13901">
        <ele>354.62775976878</ele>
        <time>2016-07-06T09:37:26Z</time>
      </trkpt>
      <trkpt lat="44.25565" lon="5.13926">
        <ele>355.91799208993</ele>
        <time>2016-07-06T09:37:30Z</time>
      </trkpt>
      <trkpt lat="44.25573" lon="5.13947">
        <ele>356.94123832603</ele>
        <time>2016-07-06T09:37:35Z</time>
      </trkpt>
      <trkpt lat="44.2558" lon="5.13968">
        <ele>358.87267469013</ele>
        <time>2016-07-06T09:37:39Z</time>
      </trkpt>
      <trkpt lat="44.2559" lon="5.13998">
        <ele>360.21390252965</ele>
        <time>2016-07-06T09:37:44Z</time>
      </trkpt>
      <trkpt lat="44.256" lon="5.14025">
        <ele>360.12579729084</ele>
        <time>2016-07-06T09:37:48Z</time>
      </trkpt>
      <trkpt lat="44.25609" lon="5.14049">
        <ele>360.42526998528</ele>
        <time>2016-07-06T09:37:52Z</time>
      </trkpt>
      <trkpt lat="44.25624" lon="5.14076">
        <ele>360.79181497532</ele>
        <time>2016-07-06T09:37:57Z</time>
      </trkpt>
      <trkpt lat="44.25638" lon="5.14095">
        <ele>361.37453662378</ele>
        <time>2016-07-06T09:38:01Z</time>
      </trkpt>
      <trkpt lat="44.25657" lon="5.14118">
        <ele>361.56029901441</ele>
        <time>2016-07-06T09:38:06Z</time>
      </trkpt>
      <trkpt lat="44.25673" lon="5.14135">
        <ele>361.89967454236</ele>
        <time>2016-07-06T09:38:10Z</time>
      </trkpt>
      <trkpt lat="44.2569" lon="5.1415">
        <ele>362.11002607989</ele>
        <time>2016-07-06T09:38:14Z</time>
      </trkpt>
      <trkpt lat="44.25707" lon="5.14163">
        <ele>362.57414470993</ele>
        <time>2016-07-06T09:38:18Z</time>
      </trkpt>
      <trkpt lat="44.25725" lon="5.14175">
        <ele>362.86235133061</ele>
        <time>2016-07-06T09:38:22Z</time>
      </trkpt>
      <trkpt lat="44.25742" lon="5.14188">
        <ele>363.32067131761</ele>
        <time>2016-07-06T09:38:26Z</time>
      </trkpt>
      <trkpt lat="44.25766" lon="5.14199">
        <ele>364.57838768224</ele>
        <time>2016-07-06T09:38:31Z</time>
      </trkpt>
      <trkpt lat="44.25784" lon="5.142">
        <ele>367.40140199276</ele>
        <time>2016-07-06T09:38:35Z</time>
      </trkpt>
      <trkpt lat="44.25807" lon="5.14202">
        <ele>367.10393234832</ele>
        <time>2016-07-06T09:38:40Z</time>
      </trkpt>
      <trkpt lat="44.25819" lon="5.14215">
        <ele>369.06642032915</ele>
        <time>2016-07-06T09:38:44Z</time>
      </trkpt>
      <trkpt lat="44.25828" lon="5.14238">
        <ele>371.01619483027</ele>
        <time>2016-07-06T09:38:48Z</time>
      </trkpt>
      <trkpt lat="44.25833" lon="5.14254">
        <ele>371.52055836672</ele>
        <time>2016-07-06T09:38:52Z</time>
      </trkpt>
      <trkpt lat="44.25838" lon="5.14268">
        <ele>371.73627213318</ele>
        <time>2016-07-06T09:38:56Z</time>
      </trkpt>
      <trkpt lat="44.25843" lon="5.14287">
        <ele>373.55365722928</ele>
        <time>2016-07-06T09:39:00Z</time>
      </trkpt>
      <trkpt lat="44.25845" lon="5.14312">
        <ele>374.60305202854</ele>
        <time>2016-07-06T09:39:04Z</time>
      </trkpt>
      <trkpt lat="44.25848" lon="5.14338">
        <ele>375.17044623411</ele>
        <time>2016-07-06T09:39:08Z</time>
      </trkpt>
      <trkpt lat="44.25843" lon="5.14372">
        <ele>374.97358942839</ele>
        <time>2016-07-06T09:39:13Z</time>
      </trkpt>
      <trkpt lat="44.25841" lon="5.14398">
        <ele>373.88187593816</ele>
        <time>2016-07-06T09:39:17Z</time>
      </trkpt>
      <trkpt lat="44.25845" lon="5.14423">
        <ele>373.92649670046</ele>
        <time>2016-07-06T09:39:21Z</time>
      </trkpt>
      <trkpt lat="44.25854" lon="5.14446">
        <ele>375.63092825308</ele>
        <time>2016-07-06T09:39:26Z</time>
      </trkpt>
      <trkpt lat="44.2586" lon="5.14464">
        <ele>375.77896184249</ele>
        <time>2016-07-06T09:39:30Z</time>
      </trkpt>
      <trkpt lat="44.25867" lon="5.14479">
        <ele>375.70915739881</ele>
        <time>2016-07-06T09:39:34Z</time>
      </trkpt>
      <trkpt lat="44.25878" lon="5.14488">
        <ele>375.72924039787</ele>
        <time>2016-07-06T09:39:38Z</time>
      </trkpt>
      <trkpt lat="44.25891" lon="5.14499">
        <ele>376.05784483351</ele>
        <time>2016-07-06T09:39:42Z</time>
      </trkpt>
      <trkpt lat="44.25904" lon="5.14516">
        <ele>376.33334543683</ele>
        <time>2016-07-06T09:39:47Z</time>
      </trkpt>
      <trkpt lat="44.25912" lon="5.1453">
        <ele>378.53291967303</ele>
        <time>2016-07-06T09:39:51Z</time>
      </trkpt>
      <trkpt lat="44.25919" lon="5.14549">
        <ele>379.21609021109</ele>
        <time>2016-07-06T09:39:56Z</time>
      </trkpt>
      <trkpt lat="44.25926" lon="5.14569">
        <ele>380.895868603</ele>
        <time>2016-07-06T09:40:00Z</time>
      </trkpt>
      <trkpt lat="44.25932" lon="5.1459">
        <ele>381.69281748109</ele>
        <time>2016-07-06T09:40:05Z</time>
      </trkpt>
      <trkpt lat="44.25935" lon="5.14604">
        <ele>382.21916695988</ele>
        <time>2016-07-06T09:40:09Z</time>
      </trkpt>
      <trkpt lat="44.25941" lon="5.1462">
        <ele>383.12844645356</ele>
        <time>2016-07-06T09:40:13Z</time>
      </trkpt>
      <trkpt lat="44.25947" lon="5.14632">
        <ele>383.95291152555</ele>
        <time>2016-07-06T09:40:17Z</time>
      </trkpt>
      <trkpt lat="44.2596" lon="5.14645">
        <ele>384.64896052616</ele>
        <time>2016-07-06T09:40:21Z</time>
      </trkpt>
      <trkpt lat="44.25975" lon="5.14649">
        <ele>390.59785932437</ele>
        <time>2016-07-06T09:40:25Z</time>
      </trkpt>
      <trkpt lat="44.25987" lon="5.14652">
        <ele>391.39548817754</ele>
        <time>2016-07-06T09:40:29Z</time>
      </trkpt>
      <trkpt lat="44.25994" lon="5.14657">
        <ele>391.91017356186</ele>
        <time>2016-07-06T09:40:34Z</time>
      </trkpt>
      <trkpt lat="44.26002" lon="5.14662">
        <ele>392.02720709036</ele>
        <time>2016-07-06T09:40:43Z</time>
      </trkpt>
      <trkpt lat="44.25996" lon="5.14655">
        <ele>389.65672688266</ele>
        <time>2016-07-06T09:41:21Z</time>
      </trkpt>
      <trkpt lat="44.25981" lon="5.14653">
        <ele>389.24005757643</ele>
        <time>2016-07-06T09:41:25Z</time>
      </trkpt>
      <trkpt lat="44.25963" lon="5.14651">
        <ele>388.72667345346</ele>
        <time>2016-07-06T09:41:30Z</time>
      </trkpt>
      <trkpt lat="44.25951" lon="5.14644">
        <ele>388.75287611892</ele>
        <time>2016-07-06T09:41:34Z</time>
      </trkpt>
      <trkpt lat="44.25942" lon="5.14628">
        <ele>388.74906950436</ele>
        <time>2016-07-06T09:41:38Z</time>
      </trkpt>
      <trkpt lat="44.25933" lon="5.14606">
        <ele>387.88885756536</ele>
        <time>2016-07-06T09:41:42Z</time>
      </trkpt>
      <trkpt lat="44.25927" lon="5.14582">
        <ele>386.35266410954</ele>
        <time>2016-07-06T09:41:46Z</time>
      </trkpt>
      <trkpt lat="44.2592" lon="5.1456">
        <ele>383.34774734702</ele>
        <time>2016-07-06T09:41:50Z</time>
      </trkpt>
      <trkpt lat="44.25914" lon="5.14539">
        <ele>382.41482087187</ele>
        <time>2016-07-06T09:41:54Z</time>
      </trkpt>
      <trkpt lat="44.259" lon="5.14516">
        <ele>379.13152680765</ele>
        <time>2016-07-06T09:41:59Z</time>
      </trkpt>
      <trkpt lat="44.25887" lon="5.14501">
        <ele>375.31118633544</ele>
        <time>2016-07-06T09:42:03Z</time>
      </trkpt>
      <trkpt lat="44.25871" lon="5.14491">
        <ele>375.2071108636</ele>
        <time>2016-07-06T09:42:08Z</time>
      </trkpt>
      <trkpt lat="44.2585" lon="5.14482">
        <ele>377.74661850702</ele>
        <time>2016-07-06T09:42:12Z</time>
      </trkpt>
      <trkpt lat="44.25844" lon="5.14456">
        <ele>378.80405309667</ele>
        <time>2016-07-06T09:42:16Z</time>
      </trkpt>
      <trkpt lat="44.25841" lon="5.14427">
        <ele>374.6949701747</ele>
        <time>2016-07-06T09:42:20Z</time>
      </trkpt>
      <trkpt lat="44.25841" lon="5.14392">
        <ele>368.64130292391</ele>
        <time>2016-07-06T09:42:24Z</time>
      </trkpt>
      <trkpt lat="44.25846" lon="5.1435">
        <ele>362.39111923779</ele>
        <time>2016-07-06T09:42:29Z</time>
      </trkpt>
      <trkpt lat="44.25845" lon="5.14316">
        <ele>358.54456496553</ele>
        <time>2016-07-06T09:42:33Z</time>
      </trkpt>
      <trkpt lat="44.25844" lon="5.1429">
        <ele>356.29731271782</ele>
        <time>2016-07-06T09:42:38Z</time>
      </trkpt>
      <trkpt lat="44.25839" lon="5.14278">
        <ele>356.0516083472</ele>
        <time>2016-07-06T09:42:42Z</time>
      </trkpt>
      <trkpt lat="44.25823" lon="5.1427">
        <ele>357.39570377642</ele>
        <time>2016-07-06T09:42:46Z</time>
      </trkpt>
      <trkpt lat="44.25795" lon="5.14284">
        <ele>357.27429203736</ele>
        <time>2016-07-06T09:42:51Z</time>
      </trkpt>
      <trkpt lat="44.25783" lon="5.14316">
        <ele>357.3662199546</ele>
        <time>2016-07-06T09:42:55Z</time>
      </trkpt>
      <trkpt lat="44.25772" lon="5.14356">
        <ele>358.40846107906</ele>
        <time>2016-07-06T09:42:59Z</time>
      </trkpt>
      <trkpt lat="44.25762" lon="5.14402">
        <ele>356.72798082618</ele>
        <time>2016-07-06T09:43:03Z</time>
      </trkpt>
      <trkpt lat="44.2575" lon="5.14458">
        <ele>353.67318955178</ele>
        <time>2016-07-06T09:43:08Z</time>
      </trkpt>
      <trkpt lat="44.25742" lon="5.14496">
        <ele>350.99775849131</ele>
        <time>2016-07-06T09:43:12Z</time>
      </trkpt>
      <trkpt lat="44.25733" lon="5.14541">
        <ele>348.46196620095</ele>
        <time>2016-07-06T09:43:17Z</time>
      </trkpt>
      <trkpt lat="44.25726" lon="5.14571">
        <ele>347.40559352711</ele>
        <time>2016-07-06T09:43:21Z</time>
      </trkpt>
      <trkpt lat="44.25716" lon="5.14616">
        <ele>346.00880520118</ele>
        <time>2016-07-06T09:43:26Z</time>
      </trkpt>
      <trkpt lat="44.25705" lon="5.14658">
        <ele>343.69230631064</ele>
        <time>2016-07-06T09:43:30Z</time>
      </trkpt>
      <trkpt lat="44.25696" lon="5.14702">
        <ele>341.4784500997</ele>
        <time>2016-07-06T09:43:34Z</time>
      </trkpt>
      <trkpt lat="44.25688" lon="5.14746">
        <ele>339.20838198436</ele>
        <time>2016-07-06T09:43:38Z</time>
      </trkpt>
      <trkpt lat="44.25676" lon="5.148">
        <ele>337.20851522418</ele>
        <time>2016-07-06T09:43:43Z</time>
      </trkpt>
      <trkpt lat="44.25666" lon="5.14843">
        <ele>335.48268523372</ele>
        <time>2016-07-06T09:43:47Z</time>
      </trkpt>
      <trkpt lat="44.25657" lon="5.14886">
        <ele>334.00588096654</ele>
        <time>2016-07-06T09:43:51Z</time>
      </trkpt>
      <trkpt lat="44.25645" lon="5.14937">
        <ele>331.38501655743</ele>
        <time>2016-07-06T09:43:56Z</time>
      </trkpt>
      <trkpt lat="44.25639" lon="5.1498">
        <ele>331.7951654928</ele>
        <time>2016-07-06T09:44:01Z</time>
      </trkpt>
      <trkpt lat="44.25639" lon="5.15013">
        <ele>333.5783918115</ele>
        <time>2016-07-06T09:44:05Z</time>
      </trkpt>
      <trkpt lat="44.25646" lon="5.15045">
        <ele>335.60975595153</ele>
        <time>2016-07-06T09:44:09Z</time>
      </trkpt>
      <trkpt lat="44.25659" lon="5.15074">
        <ele>338.57562646323</ele>
        <time>2016-07-06T09:44:13Z</time>
      </trkpt>
      <trkpt lat="44.25678" lon="5.15108">
        <ele>340.10439089342</ele>
        <time>2016-07-06T09:44:18Z</time>
      </trkpt>
      <trkpt lat="44.25691" lon="5.15145">
        <ele>342.33870438079</ele>
        <time>2016-07-06T09:44:23Z</time>
      </trkpt>
      <trkpt lat="44.25694" lon="5.15178">
        <ele>343.1115168584</ele>
        <time>2016-07-06T09:44:27Z</time>
      </trkpt>
      <trkpt lat="44.25696" lon="5.15212">
        <ele>343.38737860704</ele>
        <time>2016-07-06T09:44:31Z</time>
      </trkpt>
      <trkpt lat="44.25684" lon="5.15258">
        <ele>342.03903089409</ele>
        <time>2016-07-06T09:44:36Z</time>
      </trkpt>
      <trkpt lat="44.25655" lon="5.15301">
        <ele>335.99490500507</ele>
        <time>2016-07-06T09:44:41Z</time>
      </trkpt>
      <trkpt lat="44.25638" lon="5.15337">
        <ele>333.41370351106</ele>
        <time>2016-07-06T09:44:45Z</time>
      </trkpt>
      <trkpt lat="44.25632" lon="5.1538">
        <ele>332.2473362143</ele>
        <time>2016-07-06T09:44:49Z</time>
      </trkpt>
      <trkpt lat="44.25628" lon="5.15418">
        <ele>331.02068676356</ele>
        <time>2016-07-06T09:44:53Z</time>
      </trkpt>
      <trkpt lat="44.25574" lon="5.15463">
        <ele>327.10052699426</ele>
        <time>2016-07-06T09:44:57Z</time>
      </trkpt>
      <trkpt lat="44.2553" lon="5.15488">
        <ele>320.85746056942</ele>
        <time>2016-07-06T09:45:02Z</time>
      </trkpt>
      <trkpt lat="44.25497" lon="5.15512">
        <ele>316.69324497078</ele>
        <time>2016-07-06T09:45:06Z</time>
      </trkpt>
      <trkpt lat="44.25463" lon="5.15546">
        <ele>316.30340711574</ele>
        <time>2016-07-06T09:45:10Z</time>
      </trkpt>
      <trkpt lat="44.25424" lon="5.15589">
        <ele>313.61130579886</ele>
        <time>2016-07-06T09:45:15Z</time>
      </trkpt>
      <trkpt lat="44.25389" lon="5.15615">
        <ele>311.56510239254</ele>
        <time>2016-07-06T09:45:19Z</time>
      </trkpt>
      <trkpt lat="44.25343" lon="5.15647">
        <ele>310.04992696777</ele>
        <time>2016-07-06T09:45:24Z</time>
      </trkpt>
      <trkpt lat="44.25308" lon="5.15675">
        <ele>309.30469666219</ele>
        <time>2016-07-06T09:45:28Z</time>
      </trkpt>
      <trkpt lat="44.25263" lon="5.15696">
        <ele>308.69471964769</ele>
        <time>2016-07-06T09:45:33Z</time>
      </trkpt>
      <trkpt lat="44.25221" lon="5.15701">
        <ele>308.68139053865</ele>
        <time>2016-07-06T09:45:37Z</time>
      </trkpt>
      <trkpt lat="44.25177" lon="5.15697">
        <ele>305.63566050936</ele>
        <time>2016-07-06T09:45:41Z</time>
      </trkpt>
      <trkpt lat="44.25123" lon="5.15695">
        <ele>301.71518166693</ele>
        <time>2016-07-06T09:45:46Z</time>
      </trkpt>
      <trkpt lat="44.2508" lon="5.15699">
        <ele>298.4319608797</ele>
        <time>2016-07-06T09:45:50Z</time>
      </trkpt>
      <trkpt lat="44.25024" lon="5.15704">
        <ele>294.66669380731</ele>
        <time>2016-07-06T09:45:55Z</time>
      </trkpt>
      <trkpt lat="44.24981" lon="5.15707">
        <ele>291.96815172808</ele>
        <time>2016-07-06T09:45:59Z</time>
      </trkpt>
      <trkpt lat="44.24928" lon="5.15711">
        <ele>288.95887670788</ele>
        <time>2016-07-06T09:46:04Z</time>
      </trkpt>
      <trkpt lat="44.24879" lon="5.15714">
        <ele>289.97075935297</ele>
        <time>2016-07-06T09:46:08Z</time>
      </trkpt>
      <trkpt lat="44.24837" lon="5.15715">
        <ele>287.61861291793</ele>
        <time>2016-07-06T09:46:12Z</time>
      </trkpt>
      <trkpt lat="44.24784" lon="5.15715">
        <ele>286.51274680053</ele>
        <time>2016-07-06T09:46:17Z</time>
      </trkpt>
      <trkpt lat="44.24742" lon="5.15711">
        <ele>282.04559078217</ele>
        <time>2016-07-06T09:46:21Z</time>
      </trkpt>
      <trkpt lat="44.247" lon="5.157">
        <ele>278.16733998024</ele>
        <time>2016-07-06T09:46:25Z</time>
      </trkpt>
      <trkpt lat="44.24653" lon="5.15685">
        <ele>273.30021116874</ele>
        <time>2016-07-06T09:46:30Z</time>
      </trkpt>
      <trkpt lat="44.24614" lon="5.15654">
        <ele>268.64077996977</ele>
        <time>2016-07-06T09:46:35Z</time>
      </trkpt>
      <trkpt lat="44.24571" lon="5.15641">
        <ele>264.58017434259</ele>
        <time>2016-07-06T09:46:40Z</time>
      </trkpt>
      <trkpt lat="44.24535" lon="5.15633">
        <ele>261.94938523728</ele>
        <time>2016-07-06T09:46:44Z</time>
      </trkpt>
      <trkpt lat="44.24494" lon="5.15596">
        <ele>259.12288735281</ele>
        <time>2016-07-06T09:46:49Z</time>
      </trkpt>
      <trkpt lat="44.24453" lon="5.15575">
        <ele>256.89801607084</ele>
        <time>2016-07-06T09:46:54Z</time>
      </trkpt>
      <trkpt lat="44.24416" lon="5.15587">
        <ele>255.64317945679</ele>
        <time>2016-07-06T09:46:58Z</time>
      </trkpt>
      <trkpt lat="44.24385" lon="5.15623">
        <ele>256.87792776188</ele>
        <time>2016-07-06T09:47:02Z</time>
      </trkpt>
      <trkpt lat="44.24368" lon="5.1567">
        <ele>258.97202783408</ele>
        <time>2016-07-06T09:47:07Z</time>
      </trkpt>
      <trkpt lat="44.2436" lon="5.15703">
        <ele>261.44325774443</ele>
        <time>2016-07-06T09:47:11Z</time>
      </trkpt>
      <trkpt lat="44.24351" lon="5.15745">
        <ele>261.76499887963</ele>
        <time>2016-07-06T09:47:16Z</time>
      </trkpt>
      <trkpt lat="44.24343" lon="5.15772">
        <ele>262.44950155728</ele>
        <time>2016-07-06T09:47:20Z</time>
      </trkpt>
      <trkpt lat="44.24336" lon="5.15782">
        <ele>262.32809627699</ele>
        <time>2016-07-06T09:47:24Z</time>
      </trkpt>
      <trkpt lat="44.24339" lon="5.15793">
        <ele>262.10213856823</ele>
        <time>2016-07-06T09:47:29Z</time>
      </trkpt>
      <trkpt lat="44.24335" lon="5.15813">
        <ele>263.24282110395</ele>
        <time>2016-07-06T09:47:33Z</time>
      </trkpt>
      <trkpt lat="44.24328" lon="5.15839">
        <ele>263.09445282542</ele>
        <time>2016-07-06T09:47:37Z</time>
      </trkpt>
      <trkpt lat="44.24321" lon="5.15866">
        <ele>261.69912222258</ele>
        <time>2016-07-06T09:47:41Z</time>
      </trkpt>
      <trkpt lat="44.24314" lon="5.15897">
        <ele>262.36851574893</ele>
        <time>2016-07-06T09:47:45Z</time>
      </trkpt>
      <trkpt lat="44.24306" lon="5.15923">
        <ele>262.09105500461</ele>
        <time>2016-07-06T09:47:49Z</time>
      </trkpt>
      <trkpt lat="44.24298" lon="5.15954">
        <ele>261.97020854549</ele>
        <time>2016-07-06T09:47:53Z</time>
      </trkpt>
      <trkpt lat="44.24289" lon="5.15986">
        <ele>261.24638199194</ele>
        <time>2016-07-06T09:47:57Z</time>
      </trkpt>
      <trkpt lat="44.24281" lon="5.16017">
        <ele>261.05980108814</ele>
        <time>2016-07-06T09:48:01Z</time>
      </trkpt>
      <trkpt lat="44.24271" lon="5.16054">
        <ele>262.59155855132</ele>
        <time>2016-07-06T09:48:06Z</time>
      </trkpt>
      <trkpt lat="44.24262" lon="5.16081">
        <ele>262.58431546766</ele>
        <time>2016-07-06T09:48:10Z</time>
      </trkpt>
      <trkpt lat="44.24252" lon="5.16108">
        <ele>262.12778581064</ele>
        <time>2016-07-06T09:48:14Z</time>
      </trkpt>
      <trkpt lat="44.24243" lon="5.16134">
        <ele>263.74676154546</ele>
        <time>2016-07-06T09:48:18Z</time>
      </trkpt>
      <trkpt lat="44.24229" lon="5.16166">
        <ele>268.96812236182</ele>
        <time>2016-07-06T09:48:23Z</time>
      </trkpt>
      <trkpt lat="44.24215" lon="5.16192">
        <ele>271.22061772988</ele>
        <time>2016-07-06T09:48:27Z</time>
      </trkpt>
      <trkpt lat="44.24202" lon="5.16217">
        <ele>272.50728634653</ele>
        <time>2016-07-06T09:48:31Z</time>
      </trkpt>
      <trkpt lat="44.24185" lon="5.1625">
        <ele>269.76681618732</ele>
        <time>2016-07-06T09:48:36Z</time>
      </trkpt>
      <trkpt lat="44.24171" lon="5.16276">
        <ele>266.93091930095</ele>
        <time>2016-07-06T09:48:40Z</time>
      </trkpt>
      <trkpt lat="44.24152" lon="5.16308">
        <ele>265.01317655067</ele>
        <time>2016-07-06T09:48:45Z</time>
      </trkpt>
      <trkpt lat="44.24137" lon="5.16332">
        <ele>264.10073214145</ele>
        <time>2016-07-06T09:48:49Z</time>
      </trkpt>
      <trkpt lat="44.2412" lon="5.16362">
        <ele>263.04036563975</ele>
        <time>2016-07-06T09:48:54Z</time>
      </trkpt>
      <trkpt lat="44.24104" lon="5.1639">
        <ele>262.53778822034</ele>
        <time>2016-07-06T09:48:58Z</time>
      </trkpt>
      <trkpt lat="44.24088" lon="5.16417">
        <ele>261.75892586467</ele>
        <time>2016-07-06T09:49:02Z</time>
      </trkpt>
      <trkpt lat="44.24069" lon="5.16449">
        <ele>261.08270601711</ele>
        <time>2016-07-06T09:49:07Z</time>
      </trkpt>
      <trkpt lat="44.24053" lon="5.16477">
        <ele>261.02514993387</ele>
        <time>2016-07-06T09:49:11Z</time>
      </trkpt>
      <trkpt lat="44.24036" lon="5.16506">
        <ele>260.77930948075</ele>
        <time>2016-07-06T09:49:15Z</time>
      </trkpt>
      <trkpt lat="44.24018" lon="5.16535">
        <ele>260.22023019761</ele>
        <time>2016-07-06T09:49:19Z</time>
      </trkpt>
      <trkpt lat="44.23996" lon="5.16573">
        <ele>259.14588285027</ele>
        <time>2016-07-06T09:49:24Z</time>
      </trkpt>
      <trkpt lat="44.2398" lon="5.16602">
        <ele>258.79672652711</ele>
        <time>2016-07-06T09:49:28Z</time>
      </trkpt>
      <trkpt lat="44.23964" lon="5.16629">
        <ele>258.95216887446</ele>
        <time>2016-07-06T09:49:32Z</time>
      </trkpt>
      <trkpt lat="44.23947" lon="5.16657">
        <ele>258.78162423668</ele>
        <time>2016-07-06T09:49:36Z</time>
      </trkpt>
      <trkpt lat="44.23931" lon="5.16685">
        <ele>258.83476902884</ele>
        <time>2016-07-06T09:49:40Z</time>
      </trkpt>
      <trkpt lat="44.23915" lon="5.16713">
        <ele>259.31947582164</ele>
        <time>2016-07-06T09:49:44Z</time>
      </trkpt>
      <trkpt lat="44.23899" lon="5.1674">
        <ele>260.3893389208</ele>
        <time>2016-07-06T09:49:48Z</time>
      </trkpt>
      <trkpt lat="44.23882" lon="5.16769">
        <ele>260.92949790357</ele>
        <time>2016-07-06T09:49:52Z</time>
      </trkpt>
      <trkpt lat="44.23862" lon="5.16803">
        <ele>261.232934762</ele>
        <time>2016-07-06T09:49:57Z</time>
      </trkpt>
      <trkpt lat="44.23848" lon="5.16832">
        <ele>264.45211121106</ele>
        <time>2016-07-06T09:50:01Z</time>
      </trkpt>
      <trkpt lat="44.23835" lon="5.16856">
        <ele>267.03022836334</ele>
        <time>2016-07-06T09:50:05Z</time>
      </trkpt>
      <trkpt lat="44.23822" lon="5.16887">
        <ele>269.59338923716</ele>
        <time>2016-07-06T09:50:10Z</time>
      </trkpt>
      <trkpt lat="44.2381" lon="5.16915">
        <ele>267.7325044105</ele>
        <time>2016-07-06T09:50:14Z</time>
      </trkpt>
      <trkpt lat="44.23794" lon="5.16956">
        <ele>265.48432588836</ele>
        <time>2016-07-06T09:50:19Z</time>
      </trkpt>
      <trkpt lat="44.23782" lon="5.16988">
        <ele>265.21732846843</ele>
        <time>2016-07-06T09:50:23Z</time>
      </trkpt>
      <trkpt lat="44.23769" lon="5.17021">
        <ele>265.74237285057</ele>
        <time>2016-07-06T09:50:27Z</time>
      </trkpt>
      <trkpt lat="44.23756" lon="5.17061">
        <ele>266.69891217134</ele>
        <time>2016-07-06T09:50:32Z</time>
      </trkpt>
      <trkpt lat="44.23748" lon="5.17103">
        <ele>266.11493368342</ele>
        <time>2016-07-06T09:50:37Z</time>
      </trkpt>
      <trkpt lat="44.23746" lon="5.1714">
        <ele>266.54586754653</ele>
        <time>2016-07-06T09:50:41Z</time>
      </trkpt>
      <trkpt lat="44.23746" lon="5.17185">
        <ele>268.86726871666</ele>
        <time>2016-07-06T09:50:46Z</time>
      </trkpt>
      <trkpt lat="44.23746" lon="5.17221">
        <ele>270.18303841474</ele>
        <time>2016-07-06T09:50:50Z</time>
      </trkpt>
      <trkpt lat="44.23747" lon="5.17266">
        <ele>272.9504003023</ele>
        <time>2016-07-06T09:50:55Z</time>
      </trkpt>
      <trkpt lat="44.23749" lon="5.173">
        <ele>274.14916625748</ele>
        <time>2016-07-06T09:50:59Z</time>
      </trkpt>
      <trkpt lat="44.23755" lon="5.17341">
        <ele>275.56142693326</ele>
        <time>2016-07-06T09:51:04Z</time>
      </trkpt>
      <trkpt lat="44.23764" lon="5.17375">
        <ele>274.91253480562</ele>
        <time>2016-07-06T09:51:08Z</time>
      </trkpt>
      <trkpt lat="44.23778" lon="5.17413">
        <ele>273.42879380717</ele>
        <time>2016-07-06T09:51:13Z</time>
      </trkpt>
      <trkpt lat="44.23791" lon="5.17443">
        <ele>272.51407951358</ele>
        <time>2016-07-06T09:51:17Z</time>
      </trkpt>
      <trkpt lat="44.23807" lon="5.17479">
        <ele>271.37150307466</ele>
        <time>2016-07-06T09:51:22Z</time>
      </trkpt>
      <trkpt lat="44.23818" lon="5.17489">
        <ele>270.92760090686</ele>
        <time>2016-07-06T09:51:26Z</time>
      </trkpt>
      <trkpt lat="44.23812" lon="5.17472">
        <ele>273.176824583</ele>
        <time>2016-07-06T09:51:30Z</time>
      </trkpt>
      <trkpt lat="44.238" lon="5.17446">
        <ele>276.85973827339</ele>
        <time>2016-07-06T09:51:34Z</time>
      </trkpt>
      <trkpt lat="44.23786" lon="5.17415">
        <ele>276.59137840539</ele>
        <time>2016-07-06T09:51:38Z</time>
      </trkpt>
      <trkpt lat="44.23773" lon="5.17383">
        <ele>274.96060254764</ele>
        <time>2016-07-06T09:51:42Z</time>
      </trkpt>
      <trkpt lat="44.23764" lon="5.1735">
        <ele>274.05635193267</ele>
        <time>2016-07-06T09:51:46Z</time>
      </trkpt>
      <trkpt lat="44.23754" lon="5.17307">
        <ele>274.007131579</ele>
        <time>2016-07-06T09:51:51Z</time>
      </trkpt>
      <trkpt lat="44.2375" lon="5.17271">
        <ele>276.51257192546</ele>
        <time>2016-07-06T09:51:55Z</time>
      </trkpt>
      <trkpt lat="44.2375" lon="5.17225">
        <ele>277.48725041079</ele>
        <time>2016-07-06T09:52:00Z</time>
      </trkpt>
      <trkpt lat="44.23751" lon="5.17178">
        <ele>276.12428633816</ele>
        <time>2016-07-06T09:52:05Z</time>
      </trkpt>
      <trkpt lat="44.23753" lon="5.17132">
        <ele>270.96711433338</ele>
        <time>2016-07-06T09:52:10Z</time>
      </trkpt>
      <trkpt lat="44.23756" lon="5.17096">
        <ele>268.38262274444</ele>
        <time>2016-07-06T09:52:14Z</time>
      </trkpt>
      <trkpt lat="44.23762" lon="5.1706">
        <ele>266.54356391572</ele>
        <time>2016-07-06T09:52:18Z</time>
      </trkpt>
      <trkpt lat="44.23771" lon="5.17029">
        <ele>265.4446202234</ele>
        <time>2016-07-06T09:52:22Z</time>
      </trkpt>
      <trkpt lat="44.23785" lon="5.1699">
        <ele>264.14837981383</ele>
        <time>2016-07-06T09:52:27Z</time>
      </trkpt>
      <trkpt lat="44.23797" lon="5.1696">
        <ele>263.91187963836</ele>
        <time>2016-07-06T09:52:31Z</time>
      </trkpt>
      <trkpt lat="44.23808" lon="5.16932">
        <ele>264.89268594564</ele>
        <time>2016-07-06T09:52:35Z</time>
      </trkpt>
      <trkpt lat="44.23822" lon="5.16895">
        <ele>265.06745885441</ele>
        <time>2016-07-06T09:52:40Z</time>
      </trkpt>
      <trkpt lat="44.23832" lon="5.16871">
        <ele>264.99904777823</ele>
        <time>2016-07-06T09:52:44Z</time>
      </trkpt>
      <trkpt lat="44.23843" lon="5.1685">
        <ele>265.07467362123</ele>
        <time>2016-07-06T09:52:48Z</time>
      </trkpt>
      <trkpt lat="44.23854" lon="5.16828">
        <ele>265.12970929137</ele>
        <time>2016-07-06T09:52:52Z</time>
      </trkpt>
      <trkpt lat="44.23865" lon="5.16809">
        <ele>265.95034450013</ele>
        <time>2016-07-06T09:52:56Z</time>
      </trkpt>
      <trkpt lat="44.23872" lon="5.16802">
        <ele>265.87641503742</ele>
        <time>2016-07-06T09:53:15Z</time>
      </trkpt>
      <trkpt lat="44.23864" lon="5.16803">
        <ele>266.03871632124</ele>
        <time>2016-07-06T09:53:20Z</time>
      </trkpt>
      <trkpt lat="44.23853" lon="5.16822">
        <ele>267.06185365309</ele>
        <time>2016-07-06T09:53:24Z</time>
      </trkpt>
      <trkpt lat="44.23837" lon="5.1685">
        <ele>267.73501884558</ele>
        <time>2016-07-06T09:53:28Z</time>
      </trkpt>
      <trkpt lat="44.23823" lon="5.16879">
        <ele>268.51784016758</ele>
        <time>2016-07-06T09:53:32Z</time>
      </trkpt>
      <trkpt lat="44.23811" lon="5.16907">
        <ele>268.78713598346</ele>
        <time>2016-07-06T09:53:36Z</time>
      </trkpt>
      <trkpt lat="44.23799" lon="5.16939">
        <ele>268.01165907172</ele>
        <time>2016-07-06T09:53:40Z</time>
      </trkpt>
      <trkpt lat="44.23786" lon="5.16973">
        <ele>267.45518718697</ele>
        <time>2016-07-06T09:53:44Z</time>
      </trkpt>
      <trkpt lat="44.23773" lon="5.17006">
        <ele>266.81301262966</ele>
        <time>2016-07-06T09:53:48Z</time>
      </trkpt>
      <trkpt lat="44.23759" lon="5.17045">
        <ele>266.63539057777</ele>
        <time>2016-07-06T09:53:53Z</time>
      </trkpt>
      <trkpt lat="44.23751" lon="5.1708">
        <ele>266.78857954773</ele>
        <time>2016-07-06T09:53:57Z</time>
      </trkpt>
      <trkpt lat="44.23746" lon="5.17124">
        <ele>268.01082068775</ele>
        <time>2016-07-06T09:54:02Z</time>
      </trkpt>
      <trkpt lat="44.23746" lon="5.17161">
        <ele>268.49898462677</ele>
        <time>2016-07-06T09:54:06Z</time>
      </trkpt>
      <trkpt lat="44.23746" lon="5.17198">
        <ele>267.56668414058</ele>
        <time>2016-07-06T09:54:10Z</time>
      </trkpt>
      <trkpt lat="44.23746" lon="5.17234">
        <ele>268.18922092843</ele>
        <time>2016-07-06T09:54:14Z</time>
      </trkpt>
      <trkpt lat="44.23747" lon="5.17275">
        <ele>270.48247780619</ele>
        <time>2016-07-06T09:54:19Z</time>
      </trkpt>
      <trkpt lat="44.23749" lon="5.17304">
        <ele>272.9439654562</ele>
        <time>2016-07-06T09:54:23Z</time>
      </trkpt>
      <trkpt lat="44.23755" lon="5.17338">
        <ele>275.23936062535</ele>
        <time>2016-07-06T09:54:28Z</time>
      </trkpt>
      <trkpt lat="44.23763" lon="5.1737">
        <ele>273.27243555054</ele>
        <time>2016-07-06T09:54:32Z</time>
      </trkpt>
      <trkpt lat="44.23777" lon="5.17409">
        <ele>270.35351405226</ele>
        <time>2016-07-06T09:54:37Z</time>
      </trkpt>
      <trkpt lat="44.2379" lon="5.1744">
        <ele>268.80690349337</ele>
        <time>2016-07-06T09:54:41Z</time>
      </trkpt>
      <trkpt lat="44.23807" lon="5.17477">
        <ele>267.61092656742</ele>
        <time>2016-07-06T09:54:46Z</time>
      </trkpt>
      <trkpt lat="44.23821" lon="5.17507">
        <ele>267.38250971538</ele>
        <time>2016-07-06T09:54:50Z</time>
      </trkpt>
      <trkpt lat="44.23837" lon="5.17543">
        <ele>267.68724051116</ele>
        <time>2016-07-06T09:54:55Z</time>
      </trkpt>
      <trkpt lat="44.2385" lon="5.1757">
        <ele>269.41584113781</ele>
        <time>2016-07-06T09:54:59Z</time>
      </trkpt>
      <trkpt lat="44.23864" lon="5.17602">
        <ele>272.62611210274</ele>
        <time>2016-07-06T09:55:04Z</time>
      </trkpt>
      <trkpt lat="44.2388" lon="5.17638">
        <ele>274.85610696717</ele>
        <time>2016-07-06T09:55:09Z</time>
      </trkpt>
      <trkpt lat="44.23892" lon="5.17666">
        <ele>275.54918160296</ele>
        <time>2016-07-06T09:55:13Z</time>
      </trkpt>
      <trkpt lat="44.23903" lon="5.17695">
        <ele>276.0381755207</ele>
        <time>2016-07-06T09:55:17Z</time>
      </trkpt>
      <trkpt lat="44.23915" lon="5.1773">
        <ele>276.809675831</ele>
        <time>2016-07-06T09:55:22Z</time>
      </trkpt>
      <trkpt lat="44.23925" lon="5.1776">
        <ele>276.83390678965</ele>
        <time>2016-07-06T09:55:26Z</time>
      </trkpt>
      <trkpt lat="44.23933" lon="5.17791">
        <ele>276.27421581707</ele>
        <time>2016-07-06T09:55:30Z</time>
      </trkpt>
      <trkpt lat="44.23942" lon="5.17833">
        <ele>275.39161531632</ele>
        <time>2016-07-06T09:55:35Z</time>
      </trkpt>
      <trkpt lat="44.23949" lon="5.17872">
        <ele>275.66649238607</ele>
        <time>2016-07-06T09:55:40Z</time>
      </trkpt>
      <trkpt lat="44.23953" lon="5.17905">
        <ele>276.73679036653</ele>
        <time>2016-07-06T09:55:44Z</time>
      </trkpt>
      <trkpt lat="44.23958" lon="5.17947">
        <ele>278.3065578327</ele>
        <time>2016-07-06T09:55:49Z</time>
      </trkpt>
      <trkpt lat="44.2396" lon="5.17982">
        <ele>278.04886197424</ele>
        <time>2016-07-06T09:55:53Z</time>
      </trkpt>
      <trkpt lat="44.2396" lon="5.18016">
        <ele>277.68234578676</ele>
        <time>2016-07-06T09:55:57Z</time>
      </trkpt>
      <trkpt lat="44.23959" lon="5.18056">
        <ele>278.2277498151</ele>
        <time>2016-07-06T09:56:02Z</time>
      </trkpt>
      <trkpt lat="44.23958" lon="5.18099">
        <ele>278.9752207128</ele>
        <time>2016-07-06T09:56:07Z</time>
      </trkpt>
      <trkpt lat="44.23957" lon="5.18134">
        <ele>278.74558144248</ele>
        <time>2016-07-06T09:56:11Z</time>
      </trkpt>
      <trkpt lat="44.23954" lon="5.18168">
        <ele>278.36841899624</ele>
        <time>2016-07-06T09:56:15Z</time>
      </trkpt>
      <trkpt lat="44.23952" lon="5.18199">
        <ele>277.99422006786</ele>
        <time>2016-07-06T09:56:19Z</time>
      </trkpt>
      <trkpt lat="44.23949" lon="5.18242">
        <ele>277.07169107335</ele>
        <time>2016-07-06T09:56:24Z</time>
      </trkpt>
      <trkpt lat="44.23946" lon="5.18285">
        <ele>276.11638276968</ele>
        <time>2016-07-06T09:56:29Z</time>
      </trkpt>
      <trkpt lat="44.23943" lon="5.18317">
        <ele>275.51194889134</ele>
        <time>2016-07-06T09:56:33Z</time>
      </trkpt>
      <trkpt lat="44.2394" lon="5.18356">
        <ele>275.29758695109</ele>
        <time>2016-07-06T09:56:38Z</time>
      </trkpt>
      <trkpt lat="44.23937" lon="5.18399">
        <ele>274.41686064048</ele>
        <time>2016-07-06T09:56:43Z</time>
      </trkpt>
      <trkpt lat="44.23934" lon="5.18442">
        <ele>274.89341321478</ele>
        <time>2016-07-06T09:56:47Z</time>
      </trkpt>
      <trkpt lat="44.2393" lon="5.18492">
        <ele>273.92105531441</ele>
        <time>2016-07-06T09:56:52Z</time>
      </trkpt>
      <trkpt lat="44.23926" lon="5.18529">
        <ele>273.90818647313</ele>
        <time>2016-07-06T09:56:56Z</time>
      </trkpt>
      <trkpt lat="44.23911" lon="5.18554">
        <ele>272.18636829818</ele>
        <time>2016-07-06T09:57:00Z</time>
      </trkpt>
      <trkpt lat="44.23886" lon="5.18544">
        <ele>266.76894830218</ele>
        <time>2016-07-06T09:57:05Z</time>
      </trkpt>
      <trkpt lat="44.23866" lon="5.18529">
        <ele>265.68223935598</ele>
        <time>2016-07-06T09:57:09Z</time>
      </trkpt>
      <trkpt lat="44.23837" lon="5.18508">
        <ele>265.65052315641</ele>
        <time>2016-07-06T09:57:14Z</time>
      </trkpt>
      <trkpt lat="44.23815" lon="5.18491">
        <ele>265.05937297736</ele>
        <time>2016-07-06T09:57:18Z</time>
      </trkpt>
      <trkpt lat="44.23785" lon="5.18474">
        <ele>264.5453293804</ele>
        <time>2016-07-06T09:57:23Z</time>
      </trkpt>
      <trkpt lat="44.23753" lon="5.18461">
        <ele>264.76412724061</ele>
        <time>2016-07-06T09:57:28Z</time>
      </trkpt>
      <trkpt lat="44.2372" lon="5.18448">
        <ele>264.62539359554</ele>
        <time>2016-07-06T09:57:33Z</time>
      </trkpt>
      <trkpt lat="44.23686" lon="5.18435">
        <ele>263.14055630719</ele>
        <time>2016-07-06T09:57:38Z</time>
      </trkpt>
      <trkpt lat="44.2366" lon="5.18425">
        <ele>262.31878469682</ele>
        <time>2016-07-06T09:57:42Z</time>
      </trkpt>
      <trkpt lat="44.23635" lon="5.18414">
        <ele>262.93735309146</ele>
        <time>2016-07-06T09:57:46Z</time>
      </trkpt>
      <trkpt lat="44.2361" lon="5.18405">
        <ele>264.75980708373</ele>
        <time>2016-07-06T09:57:50Z</time>
      </trkpt>
      <trkpt lat="44.23585" lon="5.18397">
        <ele>266.76558937823</ele>
        <time>2016-07-06T09:57:54Z</time>
      </trkpt>
      <trkpt lat="44.23561" lon="5.18389">
        <ele>267.81413146178</ele>
        <time>2016-07-06T09:57:58Z</time>
      </trkpt>
      <trkpt lat="44.2354" lon="5.18379">
        <ele>267.95828482517</ele>
        <time>2016-07-06T09:58:02Z</time>
      </trkpt>
      <trkpt lat="44.23512" lon="5.18369">
        <ele>270.85305022681</ele>
        <time>2016-07-06T09:58:07Z</time>
      </trkpt>
      <trkpt lat="44.23486" lon="5.18358">
        <ele>273.26628273078</ele>
        <time>2016-07-06T09:58:12Z</time>
      </trkpt>
      <trkpt lat="44.23466" lon="5.1835">
        <ele>274.95195204629</ele>
        <time>2016-07-06T09:58:16Z</time>
      </trkpt>
      <trkpt lat="44.23448" lon="5.18343">
        <ele>274.78932683096</ele>
        <time>2016-07-06T09:58:21Z</time>
      </trkpt>
      <trkpt lat="44.23441" lon="5.18325">
        <ele>273.81404939862</ele>
        <time>2016-07-06T09:58:25Z</time>
      </trkpt>
      <trkpt lat="44.23433" lon="5.18292">
        <ele>272.4096104536</ele>
        <time>2016-07-06T09:58:30Z</time>
      </trkpt>
      <trkpt lat="44.23423" lon="5.18264">
        <ele>271.56402505569</ele>
        <time>2016-07-06T09:58:34Z</time>
      </trkpt>
      <trkpt lat="44.2341" lon="5.18228">
        <ele>271.63665576986</ele>
        <time>2016-07-06T09:58:39Z</time>
      </trkpt>
      <trkpt lat="44.23397" lon="5.18193">
        <ele>272.47482064609</ele>
        <time>2016-07-06T09:58:44Z</time>
      </trkpt>
      <trkpt lat="44.23386" lon="5.18163">
        <ele>272.75324513232</ele>
        <time>2016-07-06T09:58:48Z</time>
      </trkpt>
      <trkpt lat="44.23371" lon="5.18123">
        <ele>272.8844732542</ele>
        <time>2016-07-06T09:58:53Z</time>
      </trkpt>
      <trkpt lat="44.2336" lon="5.18092">
        <ele>273.3753618217</ele>
        <time>2016-07-06T09:58:57Z</time>
      </trkpt>
      <trkpt lat="44.23348" lon="5.18061">
        <ele>274.03093975116</ele>
        <time>2016-07-06T09:59:01Z</time>
      </trkpt>
      <trkpt lat="44.23337" lon="5.18023">
        <ele>274.35635688514</ele>
        <time>2016-07-06T09:59:06Z</time>
      </trkpt>
      <trkpt lat="44.23328" lon="5.17984">
        <ele>274.88212906046</ele>
        <time>2016-07-06T09:59:11Z</time>
      </trkpt>
      <trkpt lat="44.23323" lon="5.1795">
        <ele>275.2350977315</ele>
        <time>2016-07-06T09:59:15Z</time>
      </trkpt>
      <trkpt lat="44.23321" lon="5.17913">
        <ele>274.1418280248</ele>
        <time>2016-07-06T09:59:19Z</time>
      </trkpt>
      <trkpt lat="44.23321" lon="5.17877">
        <ele>273.42247914675</ele>
        <time>2016-07-06T09:59:23Z</time>
      </trkpt>
      <trkpt lat="44.23323" lon="5.17842">
        <ele>273.27903795833</ele>
        <time>2016-07-06T09:59:27Z</time>
      </trkpt>
      <trkpt lat="44.23326" lon="5.17801">
        <ele>273.97236360575</ele>
        <time>2016-07-06T09:59:32Z</time>
      </trkpt>
      <trkpt lat="44.2333" lon="5.17768">
        <ele>275.61976314357</ele>
        <time>2016-07-06T09:59:36Z</time>
      </trkpt>
      <trkpt lat="44.23333" lon="5.17735">
        <ele>278.21331207671</ele>
        <time>2016-07-06T09:59:40Z</time>
      </trkpt>
      <trkpt lat="44.23335" lon="5.17698">
        <ele>280.29811646094</ele>
        <time>2016-07-06T09:59:44Z</time>
      </trkpt>
      <trkpt lat="44.23333" lon="5.17655">
        <ele>281.63604149581</ele>
        <time>2016-07-06T09:59:49Z</time>
      </trkpt>
      <trkpt lat="44.2333" lon="5.1762">
        <ele>281.5645942191</ele>
        <time>2016-07-06T09:59:53Z</time>
      </trkpt>
      <trkpt lat="44.23328" lon="5.17587">
        <ele>281.10892603895</ele>
        <time>2016-07-06T09:59:57Z</time>
      </trkpt>
      <trkpt lat="44.23325" lon="5.17543">
        <ele>280.79645673939</ele>
        <time>2016-07-06T10:00:02Z</time>
      </trkpt>
      <trkpt lat="44.23323" lon="5.17507">
        <ele>280.32531569306</ele>
        <time>2016-07-06T10:00:06Z</time>
      </trkpt>
      <trkpt lat="44.23324" lon="5.17472">
        <ele>279.81786136385</ele>
        <time>2016-07-06T10:00:10Z</time>
      </trkpt>
      <trkpt lat="44.23327" lon="5.17429">
        <ele>280.05018529426</ele>
        <time>2016-07-06T10:00:15Z</time>
      </trkpt>
      <trkpt lat="44.23333" lon="5.17397">
        <ele>280.4640872676</ele>
        <time>2016-07-06T10:00:19Z</time>
      </trkpt>
      <trkpt lat="44.23341" lon="5.17355">
        <ele>282.11304201208</ele>
        <time>2016-07-06T10:00:24Z</time>
      </trkpt>
      <trkpt lat="44.23346" lon="5.17324">
        <ele>283.22778539985</ele>
        <time>2016-07-06T10:00:28Z</time>
      </trkpt>
      <trkpt lat="44.23353" lon="5.17289">
        <ele>287.18429376245</ele>
        <time>2016-07-06T10:00:33Z</time>
      </trkpt>
      <trkpt lat="44.23359" lon="5.17251">
        <ele>293.59453512605</ele>
        <time>2016-07-06T10:00:38Z</time>
      </trkpt>
      <trkpt lat="44.2336" lon="5.17217">
        <ele>295.02517990975</ele>
        <time>2016-07-06T10:00:42Z</time>
      </trkpt>
      <trkpt lat="44.23362" lon="5.17182">
        <ele>290.29318785108</ele>
        <time>2016-07-06T10:00:46Z</time>
      </trkpt>
      <trkpt lat="44.23365" lon="5.17137">
        <ele>284.05264815246</ele>
        <time>2016-07-06T10:00:51Z</time>
      </trkpt>
      <trkpt lat="44.23366" lon="5.17103">
        <ele>282.49603054304</ele>
        <time>2016-07-06T10:00:55Z</time>
      </trkpt>
      <trkpt lat="44.23369" lon="5.1707">
        <ele>280.80888290018</ele>
        <time>2016-07-06T10:00:59Z</time>
      </trkpt>
      <trkpt lat="44.23373" lon="5.17037">
        <ele>279.96866049444</ele>
        <time>2016-07-06T10:01:03Z</time>
      </trkpt>
      <trkpt lat="44.23378" lon="5.17004">
        <ele>280.67859295178</ele>
        <time>2016-07-06T10:01:07Z</time>
      </trkpt>
      <trkpt lat="44.23384" lon="5.16973">
        <ele>281.75342039191</ele>
        <time>2016-07-06T10:01:11Z</time>
      </trkpt>
      <trkpt lat="44.23393" lon="5.16934">
        <ele>284.62521908866</ele>
        <time>2016-07-06T10:01:16Z</time>
      </trkpt>
      <trkpt lat="44.23402" lon="5.16903">
        <ele>287.15597337666</ele>
        <time>2016-07-06T10:01:20Z</time>
      </trkpt>
      <trkpt lat="44.23411" lon="5.16874">
        <ele>288.3912965747</ele>
        <time>2016-07-06T10:01:24Z</time>
      </trkpt>
      <trkpt lat="44.23422" lon="5.16844">
        <ele>287.22136189435</ele>
        <time>2016-07-06T10:01:28Z</time>
      </trkpt>
      <trkpt lat="44.23434" lon="5.16803">
        <ele>285.44644996601</ele>
        <time>2016-07-06T10:01:33Z</time>
      </trkpt>
      <trkpt lat="44.23444" lon="5.16768">
        <ele>283.31015972842</ele>
        <time>2016-07-06T10:01:37Z</time>
      </trkpt>
      <trkpt lat="44.23453" lon="5.16736">
        <ele>282.7717388449</ele>
        <time>2016-07-06T10:01:41Z</time>
      </trkpt>
      <trkpt lat="44.23463" lon="5.16707">
        <ele>281.65232939754</ele>
        <time>2016-07-06T10:01:45Z</time>
      </trkpt>
      <trkpt lat="44.23479" lon="5.16662">
        <ele>278.15524134696</ele>
        <time>2016-07-06T10:01:50Z</time>
      </trkpt>
      <trkpt lat="44.2349" lon="5.16627">
        <ele>273.52576370135</ele>
        <time>2016-07-06T10:01:54Z</time>
      </trkpt>
      <trkpt lat="44.23499" lon="5.16599">
        <ele>272.99823386074</ele>
        <time>2016-07-06T10:01:58Z</time>
      </trkpt>
      <trkpt lat="44.23505" lon="5.16563">
        <ele>275.38070706121</ele>
        <time>2016-07-06T10:02:02Z</time>
      </trkpt>
      <trkpt lat="44.23512" lon="5.16525">
        <ele>275.24969620192</ele>
        <time>2016-07-06T10:02:06Z</time>
      </trkpt>
      <trkpt lat="44.23516" lon="5.1649">
        <ele>275.7576092039</ele>
        <time>2016-07-06T10:02:10Z</time>
      </trkpt>
      <trkpt lat="44.23521" lon="5.16455">
        <ele>275.71011332705</ele>
        <time>2016-07-06T10:02:14Z</time>
      </trkpt>
      <trkpt lat="44.23526" lon="5.1642">
        <ele>273.68546691467</ele>
        <time>2016-07-06T10:02:18Z</time>
      </trkpt>
      <trkpt lat="44.23531" lon="5.16384">
        <ele>272.0101952961</ele>
        <time>2016-07-06T10:02:23Z</time>
      </trkpt>
      <trkpt lat="44.23524" lon="5.16343">
        <ele>267.11859921037</ele>
        <time>2016-07-06T10:02:28Z</time>
      </trkpt>
      <trkpt lat="44.23512" lon="5.16299">
        <ele>262.69950051792</ele>
        <time>2016-07-06T10:02:33Z</time>
      </trkpt>
      <trkpt lat="44.23498" lon="5.16266">
        <ele>262.50552223511</ele>
        <time>2016-07-06T10:02:37Z</time>
      </trkpt>
      <trkpt lat="44.23464" lon="5.16253">
        <ele>262.08033202468</ele>
        <time>2016-07-06T10:02:42Z</time>
      </trkpt>
      <trkpt lat="44.23442" lon="5.16236">
        <ele>264.72038588139</ele>
        <time>2016-07-06T10:02:47Z</time>
      </trkpt>
      <trkpt lat="44.23433" lon="5.16208">
        <ele>264.3007657802</ele>
        <time>2016-07-06T10:02:51Z</time>
      </trkpt>
      <trkpt lat="44.23425" lon="5.16171">
        <ele>264.45904783379</ele>
        <time>2016-07-06T10:02:56Z</time>
      </trkpt>
      <trkpt lat="44.23424" lon="5.16141">
        <ele>261.95003189173</ele>
        <time>2016-07-06T10:03:00Z</time>
      </trkpt>
      <trkpt lat="44.23425" lon="5.16094">
        <ele>261.00857095161</ele>
        <time>2016-07-06T10:03:05Z</time>
      </trkpt>
      <trkpt lat="44.2343" lon="5.16054">
        <ele>263.85869538388</ele>
        <time>2016-07-06T10:03:09Z</time>
      </trkpt>
      <trkpt lat="44.23435" lon="5.16017">
        <ele>267.91552020043</ele>
        <time>2016-07-06T10:03:13Z</time>
      </trkpt>
      <trkpt lat="44.23441" lon="5.15983">
        <ele>269.93391640699</ele>
        <time>2016-07-06T10:03:17Z</time>
      </trkpt>
      <trkpt lat="44.23447" lon="5.15947">
        <ele>269.74471324151</ele>
        <time>2016-07-06T10:03:21Z</time>
      </trkpt>
      <trkpt lat="44.23453" lon="5.15913">
        <ele>269.18466882767</ele>
        <time>2016-07-06T10:03:25Z</time>
      </trkpt>
      <trkpt lat="44.2346" lon="5.15868">
        <ele>267.55675374819</ele>
        <time>2016-07-06T10:03:30Z</time>
      </trkpt>
      <trkpt lat="44.23464" lon="5.15834">
        <ele>267.39553500511</ele>
        <time>2016-07-06T10:03:34Z</time>
      </trkpt>
      <trkpt lat="44.23467" lon="5.15803">
        <ele>269.82748344214</ele>
        <time>2016-07-06T10:03:38Z</time>
      </trkpt>
      <trkpt lat="44.23471" lon="5.15768">
        <ele>270.92473084549</ele>
        <time>2016-07-06T10:03:42Z</time>
      </trkpt>
      <trkpt lat="44.2348" lon="5.15722">
        <ele>269.16325788299</ele>
        <time>2016-07-06T10:03:47Z</time>
      </trkpt>
      <trkpt lat="44.23487" lon="5.15686">
        <ele>266.15058494228</ele>
        <time>2016-07-06T10:03:51Z</time>
      </trkpt>
      <trkpt lat="44.23492" lon="5.15652">
        <ele>264.57050107244</ele>
        <time>2016-07-06T10:03:55Z</time>
      </trkpt>
      <trkpt lat="44.23497" lon="5.15618">
        <ele>264.72700477691</ele>
        <time>2016-07-06T10:03:59Z</time>
      </trkpt>
      <trkpt lat="44.23501" lon="5.15584">
        <ele>267.8108902156</ele>
        <time>2016-07-06T10:04:03Z</time>
      </trkpt>
      <trkpt lat="44.23506" lon="5.15549">
        <ele>271.15801846323</ele>
        <time>2016-07-06T10:04:07Z</time>
      </trkpt>
      <trkpt lat="44.23512" lon="5.15503">
        <ele>263.8242576479</ele>
        <time>2016-07-06T10:04:12Z</time>
      </trkpt>
      <trkpt lat="44.23514" lon="5.1546">
        <ele>257.54577481407</ele>
        <time>2016-07-06T10:04:17Z</time>
      </trkpt>
      <trkpt lat="44.23512" lon="5.15425">
        <ele>254.95378824044</ele>
        <time>2016-07-06T10:04:21Z</time>
      </trkpt>
      <trkpt lat="44.23507" lon="5.15382">
        <ele>253.97632924002</ele>
        <time>2016-07-06T10:04:26Z</time>
      </trkpt>
      <trkpt lat="44.23501" lon="5.15348">
        <ele>253.46188849562</ele>
        <time>2016-07-06T10:04:30Z</time>
      </trkpt>
      <trkpt lat="44.23493" lon="5.15304">
        <ele>253.51416070804</ele>
        <time>2016-07-06T10:04:35Z</time>
      </trkpt>
      <trkpt lat="44.23488" lon="5.15261">
        <ele>254.16778576438</ele>
        <time>2016-07-06T10:04:40Z</time>
      </trkpt>
      <trkpt lat="44.23489" lon="5.15226">
        <ele>254.64614843185</ele>
        <time>2016-07-06T10:04:44Z</time>
      </trkpt>
      <trkpt lat="44.23498" lon="5.15181">
        <ele>254.56847406174</ele>
        <time>2016-07-06T10:04:49Z</time>
      </trkpt>
      <trkpt lat="44.23511" lon="5.15151">
        <ele>254.43856370255</ele>
        <time>2016-07-06T10:04:53Z</time>
      </trkpt>
      <trkpt lat="44.23528" lon="5.15122">
        <ele>253.80421641482</ele>
        <time>2016-07-06T10:04:57Z</time>
      </trkpt>
      <trkpt lat="44.23551" lon="5.15097">
        <ele>252.45688652344</ele>
        <time>2016-07-06T10:05:02Z</time>
      </trkpt>
      <trkpt lat="44.23572" lon="5.15081">
        <ele>252.19313899162</ele>
        <time>2016-07-06T10:05:06Z</time>
      </trkpt>
      <trkpt lat="44.23602" lon="5.1506">
        <ele>253.59600585848</ele>
        <time>2016-07-06T10:05:11Z</time>
      </trkpt>
      <trkpt lat="44.23626" lon="5.15046">
        <ele>253.50990648175</ele>
        <time>2016-07-06T10:05:15Z</time>
      </trkpt>
      <trkpt lat="44.23653" lon="5.15028">
        <ele>252.63310770178</ele>
        <time>2016-07-06T10:05:20Z</time>
      </trkpt>
      <trkpt lat="44.23676" lon="5.15009">
        <ele>254.26858656786</ele>
        <time>2016-07-06T10:05:25Z</time>
      </trkpt>
      <trkpt lat="44.23693" lon="5.14985">
        <ele>255.12330067756</ele>
        <time>2016-07-06T10:05:29Z</time>
      </trkpt>
      <trkpt lat="44.23707" lon="5.14961">
        <ele>254.9266909922</ele>
        <time>2016-07-06T10:05:33Z</time>
      </trkpt>
      <trkpt lat="44.23719" lon="5.14935">
        <ele>253.96582562671</ele>
        <time>2016-07-06T10:05:37Z</time>
      </trkpt>
      <trkpt lat="44.2373" lon="5.14897">
        <ele>252.73707186084</ele>
        <time>2016-07-06T10:05:42Z</time>
      </trkpt>
      <trkpt lat="44.23731" lon="5.14871">
        <ele>251.69953928587</ele>
        <time>2016-07-06T10:05:46Z</time>
      </trkpt>
      <trkpt lat="44.2373" lon="5.14864">
        <ele>251.15816687543</ele>
        <time>2016-07-06T10:05:47Z</time>
      </trkpt>
      <trkpt lat="44.2372" lon="5.14823">
        <ele>251.24761696743</ele>
        <time>2016-07-06T10:05:52Z</time>
      </trkpt>
      <trkpt lat="44.23721" lon="5.14794">
        <ele>253.47827566134</ele>
        <time>2016-07-06T10:05:56Z</time>
      </trkpt>
      <trkpt lat="44.2371" lon="5.14749">
        <ele>245.461790122</ele>
        <time>2016-07-06T10:06:01Z</time>
      </trkpt>
      <trkpt lat="44.23693" lon="5.14714">
        <ele>240.50692482021</ele>
        <time>2016-07-06T10:06:05Z</time>
      </trkpt>
      <trkpt lat="44.23667" lon="5.14678">
        <ele>236.40960012302</ele>
        <time>2016-07-06T10:06:10Z</time>
      </trkpt>
      <trkpt lat="44.23645" lon="5.14645">
        <ele>233.75215119756</ele>
        <time>2016-07-06T10:06:15Z</time>
      </trkpt>
      <trkpt lat="44.23632" lon="5.14617">
        <ele>239.20257541489</ele>
        <time>2016-07-06T10:06:19Z</time>
      </trkpt>
      <trkpt lat="44.23622" lon="5.14574">
        <ele>237.3895303358</ele>
        <time>2016-07-06T10:06:24Z</time>
      </trkpt>
      <trkpt lat="44.23617" lon="5.14538">
        <ele>235.40966868585</ele>
        <time>2016-07-06T10:06:28Z</time>
      </trkpt>
      <trkpt lat="44.23613" lon="5.14509">
        <ele>238.24787379987</ele>
        <time>2016-07-06T10:06:32Z</time>
      </trkpt>
      <trkpt lat="44.2361" lon="5.14479">
        <ele>244.93130979922</ele>
        <time>2016-07-06T10:06:37Z</time>
      </trkpt>
      <trkpt lat="44.23603" lon="5.14449">
        <ele>248.01845947244</ele>
        <time>2016-07-06T10:06:42Z</time>
      </trkpt>
      <trkpt lat="44.23596" lon="5.14417">
        <ele>246.9613388169</ele>
        <time>2016-07-06T10:06:46Z</time>
      </trkpt>
      <trkpt lat="44.23585" lon="5.14377">
        <ele>243.15460109651</ele>
        <time>2016-07-06T10:06:51Z</time>
      </trkpt>
      <trkpt lat="44.23578" lon="5.1435">
        <ele>242.18127472062</ele>
        <time>2016-07-06T10:06:55Z</time>
      </trkpt>
      <trkpt lat="44.23569" lon="5.14322">
        <ele>241.10105109861</ele>
        <time>2016-07-06T10:06:59Z</time>
      </trkpt>
      <trkpt lat="44.23559" lon="5.14287">
        <ele>239.20228857703</ele>
        <time>2016-07-06T10:07:04Z</time>
      </trkpt>
      <trkpt lat="44.23548" lon="5.14252">
        <ele>237.60442975778</ele>
        <time>2016-07-06T10:07:09Z</time>
      </trkpt>
      <trkpt lat="44.23538" lon="5.14221">
        <ele>235.74268875565</ele>
        <time>2016-07-06T10:07:13Z</time>
      </trkpt>
      <trkpt lat="44.2352" lon="5.14184">
        <ele>234.61694738753</ele>
        <time>2016-07-06T10:07:18Z</time>
      </trkpt>
      <trkpt lat="44.23502" lon="5.14158">
        <ele>234.07052342644</ele>
        <time>2016-07-06T10:07:22Z</time>
      </trkpt>
      <trkpt lat="44.23475" lon="5.1413">
        <ele>232.80507035504</ele>
        <time>2016-07-06T10:07:27Z</time>
      </trkpt>
      <trkpt lat="44.23451" lon="5.14113">
        <ele>234.8897777437</ele>
        <time>2016-07-06T10:07:31Z</time>
      </trkpt>
      <trkpt lat="44.23417" lon="5.14098">
        <ele>238.33612113521</ele>
        <time>2016-07-06T10:07:36Z</time>
      </trkpt>
      <trkpt lat="44.23386" lon="5.14092">
        <ele>237.19749747288</ele>
        <time>2016-07-06T10:07:40Z</time>
      </trkpt>
      <trkpt lat="44.23349" lon="5.14088">
        <ele>231.03587242403</ele>
        <time>2016-07-06T10:07:45Z</time>
      </trkpt>
      <trkpt lat="44.23324" lon="5.14083">
        <ele>228.10304985968</ele>
        <time>2016-07-06T10:07:49Z</time>
      </trkpt>
      <trkpt lat="44.23296" lon="5.14074">
        <ele>227.28409196943</ele>
        <time>2016-07-06T10:07:53Z</time>
      </trkpt>
      <trkpt lat="44.23269" lon="5.14062">
        <ele>226.7666509505</ele>
        <time>2016-07-06T10:07:57Z</time>
      </trkpt>
      <trkpt lat="44.23247" lon="5.14048">
        <ele>227.81224254595</ele>
        <time>2016-07-06T10:08:01Z</time>
      </trkpt>
      <trkpt lat="44.23227" lon="5.14035">
        <ele>230.12769436737</ele>
        <time>2016-07-06T10:08:05Z</time>
      </trkpt>
      <trkpt lat="44.23203" lon="5.14016">
        <ele>233.37084509115</ele>
        <time>2016-07-06T10:08:10Z</time>
      </trkpt>
      <trkpt lat="44.23183" lon="5.13998">
        <ele>234.10086640703</ele>
        <time>2016-07-06T10:08:14Z</time>
      </trkpt>
      <trkpt lat="44.23159" lon="5.13974">
        <ele>234.62117753072</ele>
        <time>2016-07-06T10:08:19Z</time>
      </trkpt>
      <trkpt lat="44.23137" lon="5.13948">
        <ele>234.24168199498</ele>
        <time>2016-07-06T10:08:24Z</time>
      </trkpt>
      <trkpt lat="44.23122" lon="5.13926">
        <ele>235.40834524529</ele>
        <time>2016-07-06T10:08:28Z</time>
      </trkpt>
      <trkpt lat="44.2311" lon="5.13909">
        <ele>236.53715757694</ele>
        <time>2016-07-06T10:08:32Z</time>
      </trkpt>
      <trkpt lat="44.23099" lon="5.13889">
        <ele>236.68233516497</ele>
        <time>2016-07-06T10:08:36Z</time>
      </trkpt>
      <trkpt lat="44.23087" lon="5.13874">
        <ele>236.74450701986</ele>
        <time>2016-07-06T10:08:40Z</time>
      </trkpt>
      <trkpt lat="44.23076" lon="5.13861">
        <ele>236.63329447811</ele>
        <time>2016-07-06T10:08:44Z</time>
      </trkpt>
      <trkpt lat="44.23065" lon="5.13849">
        <ele>235.96579738826</ele>
        <time>2016-07-06T10:08:48Z</time>
      </trkpt>
      <trkpt lat="44.23054" lon="5.13835">
        <ele>235.0352267459</ele>
        <time>2016-07-06T10:08:52Z</time>
      </trkpt>
      <trkpt lat="44.23038" lon="5.13819">
        <ele>236.1337141006</ele>
        <time>2016-07-06T10:08:56Z</time>
      </trkpt>
      <trkpt lat="44.23023" lon="5.13803">
        <ele>238.95964473731</ele>
        <time>2016-07-06T10:09:00Z</time>
      </trkpt>
      <trkpt lat="44.23002" lon="5.13781">
        <ele>240.73489099969</ele>
        <time>2016-07-06T10:09:05Z</time>
      </trkpt>
      <trkpt lat="44.22981" lon="5.13765">
        <ele>236.86147915484</ele>
        <time>2016-07-06T10:09:09Z</time>
      </trkpt>
      <trkpt lat="44.22964" lon="5.13752">
        <ele>232.672113945</ele>
        <time>2016-07-06T10:09:13Z</time>
      </trkpt>
      <trkpt lat="44.22944" lon="5.13735">
        <ele>232.46145581702</ele>
        <time>2016-07-06T10:09:18Z</time>
      </trkpt>
      <trkpt lat="44.22927" lon="5.13719">
        <ele>232.55246921257</ele>
        <time>2016-07-06T10:09:22Z</time>
      </trkpt>
      <trkpt lat="44.22915" lon="5.13707">
        <ele>232.56354926614</ele>
        <time>2016-07-06T10:09:26Z</time>
      </trkpt>
      <trkpt lat="44.22912" lon="5.13701">
        <ele>232.44481872611</ele>
        <time>2016-07-06T10:09:37Z</time>
      </trkpt>
      <trkpt lat="44.22899" lon="5.13678">
        <ele>234.27365079164</ele>
        <time>2016-07-06T10:09:42Z</time>
      </trkpt>
      <trkpt lat="44.2288" lon="5.13667">
        <ele>236.06760430948</ele>
        <time>2016-07-06T10:09:46Z</time>
      </trkpt>
      <trkpt lat="44.22855" lon="5.1366">
        <ele>236.95556632769</ele>
        <time>2016-07-06T10:09:51Z</time>
      </trkpt>
      <trkpt lat="44.22836" lon="5.13655">
        <ele>236.8557546048</ele>
        <time>2016-07-06T10:09:55Z</time>
      </trkpt>
      <trkpt lat="44.22811" lon="5.1365">
        <ele>237.39106692942</ele>
        <time>2016-07-06T10:10:00Z</time>
      </trkpt>
      <trkpt lat="44.22784" lon="5.13643">
        <ele>242.46710182951</ele>
        <time>2016-07-06T10:10:05Z</time>
      </trkpt>
      <trkpt lat="44.22756" lon="5.13638">
        <ele>245.18063335444</ele>
        <time>2016-07-06T10:10:09Z</time>
      </trkpt>
      <trkpt lat="44.22727" lon="5.13631">
        <ele>244.91103073765</ele>
        <time>2016-07-06T10:10:14Z</time>
      </trkpt>
      <trkpt lat="44.22699" lon="5.13624">
        <ele>245.25528041453</ele>
        <time>2016-07-06T10:10:19Z</time>
      </trkpt>
      <trkpt lat="44.22679" lon="5.13617">
        <ele>244.44546692216</ele>
        <time>2016-07-06T10:10:23Z</time>
      </trkpt>
      <trkpt lat="44.22659" lon="5.1361">
        <ele>242.3249160114</ele>
        <time>2016-07-06T10:10:27Z</time>
      </trkpt>
      <trkpt lat="44.22632" lon="5.13596">
        <ele>242.08415385669</ele>
        <time>2016-07-06T10:10:32Z</time>
      </trkpt>
      <trkpt lat="44.22613" lon="5.13583">
        <ele>242.6266903588</ele>
        <time>2016-07-06T10:10:36Z</time>
      </trkpt>
      <trkpt lat="44.22592" lon="5.13568">
        <ele>242.30080431554</ele>
        <time>2016-07-06T10:10:40Z</time>
      </trkpt>
      <trkpt lat="44.22577" lon="5.13547">
        <ele>240.80840377149</ele>
        <time>2016-07-06T10:10:44Z</time>
      </trkpt>
      <trkpt lat="44.22559" lon="5.13514">
        <ele>238.13966116779</ele>
        <time>2016-07-06T10:10:49Z</time>
      </trkpt>
      <trkpt lat="44.22548" lon="5.13481">
        <ele>238.47559922323</ele>
        <time>2016-07-06T10:10:54Z</time>
      </trkpt>
      <trkpt lat="44.2254" lon="5.13451">
        <ele>239.63218779532</ele>
        <time>2016-07-06T10:10:58Z</time>
      </trkpt>
      <trkpt lat="44.22531" lon="5.1342">
        <ele>240.54854260643</ele>
        <time>2016-07-06T10:11:02Z</time>
      </trkpt>
      <trkpt lat="44.22522" lon="5.13388">
        <ele>241.37673520447</ele>
        <time>2016-07-06T10:11:06Z</time>
      </trkpt>
      <trkpt lat="44.22512" lon="5.13359">
        <ele>242.77833489748</ele>
        <time>2016-07-06T10:11:10Z</time>
      </trkpt>
      <trkpt lat="44.22497" lon="5.13322">
        <ele>245.26579240247</ele>
        <time>2016-07-06T10:11:15Z</time>
      </trkpt>
      <trkpt lat="44.22483" lon="5.13292">
        <ele>247.95453696731</ele>
        <time>2016-07-06T10:11:19Z</time>
      </trkpt>
      <trkpt lat="44.22467" lon="5.13267">
        <ele>250.37379187106</ele>
        <time>2016-07-06T10:11:23Z</time>
      </trkpt>
      <trkpt lat="44.22452" lon="5.13239">
        <ele>246.80763309498</ele>
        <time>2016-07-06T10:11:27Z</time>
      </trkpt>
      <trkpt lat="44.22437" lon="5.13211">
        <ele>242.94761647378</ele>
        <time>2016-07-06T10:11:32Z</time>
      </trkpt>
      <trkpt lat="44.22422" lon="5.13191">
        <ele>242.27869796327</ele>
        <time>2016-07-06T10:11:36Z</time>
      </trkpt>
      <trkpt lat="44.22403" lon="5.13166">
        <ele>245.40589245285</ele>
        <time>2016-07-06T10:11:41Z</time>
      </trkpt>
      <trkpt lat="44.22385" lon="5.13137">
        <ele>245.57682386318</ele>
        <time>2016-07-06T10:11:46Z</time>
      </trkpt>
      <trkpt lat="44.2237" lon="5.13113">
        <ele>244.30358399435</ele>
        <time>2016-07-06T10:11:50Z</time>
      </trkpt>
      <trkpt lat="44.22354" lon="5.1309">
        <ele>243.50665177643</ele>
        <time>2016-07-06T10:11:54Z</time>
      </trkpt>
      <trkpt lat="44.22338" lon="5.13068">
        <ele>242.7903860203</ele>
        <time>2016-07-06T10:11:59Z</time>
      </trkpt>
      <trkpt lat="44.2233" lon="5.13064">
        <ele>242.77461550942</ele>
        <time>2016-07-06T10:12:03Z</time>
      </trkpt>
      <trkpt lat="44.22331" lon="5.13053">
        <ele>242.679296893</ele>
        <time>2016-07-06T10:12:42Z</time>
      </trkpt>
      <trkpt lat="44.22326" lon="5.13032">
        <ele>246.69249249338</ele>
        <time>2016-07-06T10:12:46Z</time>
      </trkpt>
      <trkpt lat="44.22319" lon="5.13008">
        <ele>249.37526738864</ele>
        <time>2016-07-06T10:12:50Z</time>
      </trkpt>
      <trkpt lat="44.22314" lon="5.12969">
        <ele>250.52366095887</ele>
        <time>2016-07-06T10:12:55Z</time>
      </trkpt>
      <trkpt lat="44.22311" lon="5.12931">
        <ele>253.2503195559</ele>
        <time>2016-07-06T10:13:00Z</time>
      </trkpt>
      <trkpt lat="44.22308" lon="5.12901">
        <ele>255.67407254738</ele>
        <time>2016-07-06T10:13:04Z</time>
      </trkpt>
      <trkpt lat="44.22305" lon="5.12874">
        <ele>257.38993767993</ele>
        <time>2016-07-06T10:13:08Z</time>
      </trkpt>
      <trkpt lat="44.22301" lon="5.12843">
        <ele>258.48206097487</ele>
        <time>2016-07-06T10:13:13Z</time>
      </trkpt>
      <trkpt lat="44.22299" lon="5.12813">
        <ele>257.1357152514</ele>
        <time>2016-07-06T10:13:17Z</time>
      </trkpt>
      <trkpt lat="44.22297" lon="5.12784">
        <ele>255.9513905035</ele>
        <time>2016-07-06T10:13:21Z</time>
      </trkpt>
      <trkpt lat="44.22296" lon="5.12757">
        <ele>256.14971447203</ele>
        <time>2016-07-06T10:13:25Z</time>
      </trkpt>
      <trkpt lat="44.22294" lon="5.12729">
        <ele>257.24546178409</ele>
        <time>2016-07-06T10:13:30Z</time>
      </trkpt>
      <trkpt lat="44.2229" lon="5.12703">
        <ele>258.56943860942</ele>
        <time>2016-07-06T10:13:35Z</time>
      </trkpt>
      <trkpt lat="44.22287" lon="5.12681">
        <ele>256.14724794618</ele>
        <time>2016-07-06T10:13:39Z</time>
      </trkpt>
      <trkpt lat="44.22283" lon="5.12638">
        <ele>250.15085331737</ele>
        <time>2016-07-06T10:13:44Z</time>
      </trkpt>
      <trkpt lat="44.22279" lon="5.12607">
        <ele>247.22303882081</ele>
        <time>2016-07-06T10:13:48Z</time>
      </trkpt>
      <trkpt lat="44.22271" lon="5.12571">
        <ele>249.62387577301</ele>
        <time>2016-07-06T10:13:53Z</time>
      </trkpt>
      <trkpt lat="44.22261" lon="5.12541">
        <ele>250.90789740954</ele>
        <time>2016-07-06T10:13:57Z</time>
      </trkpt>
      <trkpt lat="44.22249" lon="5.12508">
        <ele>249.93164490789</ele>
        <time>2016-07-06T10:14:02Z</time>
      </trkpt>
      <trkpt lat="44.22241" lon="5.1248">
        <ele>249.16340376522</ele>
        <time>2016-07-06T10:14:06Z</time>
      </trkpt>
      <trkpt lat="44.22226" lon="5.12447">
        <ele>250.01115904666</ele>
        <time>2016-07-06T10:14:11Z</time>
      </trkpt>
      <trkpt lat="44.22212" lon="5.12419">
        <ele>246.35284680584</ele>
        <time>2016-07-06T10:14:15Z</time>
      </trkpt>
      <trkpt lat="44.22192" lon="5.12385">
        <ele>240.95670281808</ele>
        <time>2016-07-06T10:14:20Z</time>
      </trkpt>
      <trkpt lat="44.22172" lon="5.12357">
        <ele>237.4047202686</ele>
        <time>2016-07-06T10:14:24Z</time>
      </trkpt>
      <trkpt lat="44.22163" lon="5.12325">
        <ele>234.17415672941</ele>
        <time>2016-07-06T10:14:29Z</time>
      </trkpt>
      <trkpt lat="44.22149" lon="5.12295">
        <ele>235.64504208583</ele>
        <time>2016-07-06T10:14:34Z</time>
      </trkpt>
      <trkpt lat="44.22134" lon="5.12272">
        <ele>237.51654934357</ele>
        <time>2016-07-06T10:14:38Z</time>
      </trkpt>
      <trkpt lat="44.22111" lon="5.12251">
        <ele>243.02236213202</ele>
        <time>2016-07-06T10:14:43Z</time>
      </trkpt>
      <trkpt lat="44.22094" lon="5.12228">
        <ele>244.02247355324</ele>
        <time>2016-07-06T10:14:47Z</time>
      </trkpt>
      <trkpt lat="44.22078" lon="5.12201">
        <ele>242.82810211209</ele>
        <time>2016-07-06T10:14:52Z</time>
      </trkpt>
      <trkpt lat="44.22063" lon="5.12181">
        <ele>241.04864636918</ele>
        <time>2016-07-06T10:14:56Z</time>
      </trkpt>
      <trkpt lat="44.2205" lon="5.12155">
        <ele>242.55335932528</ele>
        <time>2016-07-06T10:15:01Z</time>
      </trkpt>
      <trkpt lat="44.22045" lon="5.12131">
        <ele>247.79019454346</ele>
        <time>2016-07-06T10:15:05Z</time>
      </trkpt>
      <trkpt lat="44.22037" lon="5.12114">
        <ele>251.00582493628</ele>
        <time>2016-07-06T10:15:09Z</time>
      </trkpt>
      <trkpt lat="44.22021" lon="5.12113">
        <ele>247.17377302066</ele>
        <time>2016-07-06T10:15:14Z</time>
      </trkpt>
      <trkpt lat="44.22003" lon="5.12126">
        <ele>235.8176413833</ele>
        <time>2016-07-06T10:15:18Z</time>
      </trkpt>
      <trkpt lat="44.21981" lon="5.12146">
        <ele>232.1490153137</ele>
        <time>2016-07-06T10:15:22Z</time>
      </trkpt>
      <trkpt lat="44.21961" lon="5.12169">
        <ele>229.70013640673</ele>
        <time>2016-07-06T10:15:27Z</time>
      </trkpt>
      <trkpt lat="44.21939" lon="5.12192">
        <ele>231.26479373311</ele>
        <time>2016-07-06T10:15:32Z</time>
      </trkpt>
      <trkpt lat="44.21925" lon="5.122">
        <ele>231.66407931028</ele>
        <time>2016-07-06T10:15:36Z</time>
      </trkpt>
      <trkpt lat="44.21921" lon="5.12183">
        <ele>230.68953201445</ele>
        <time>2016-07-06T10:15:40Z</time>
      </trkpt>
      <trkpt lat="44.21923" lon="5.12155">
        <ele>233.04084131973</ele>
        <time>2016-07-06T10:15:44Z</time>
      </trkpt>
      <trkpt lat="44.21927" lon="5.12123">
        <ele>239.17059426948</ele>
        <time>2016-07-06T10:15:48Z</time>
      </trkpt>
      <trkpt lat="44.21937" lon="5.12076">
        <ele>242.67915059227</ele>
        <time>2016-07-06T10:15:53Z</time>
      </trkpt>
      <trkpt lat="44.21948" lon="5.12041">
        <ele>241.10611000261</ele>
        <time>2016-07-06T10:15:57Z</time>
      </trkpt>
      <trkpt lat="44.2196" lon="5.11999">
        <ele>238.93276265818</ele>
        <time>2016-07-06T10:16:02Z</time>
      </trkpt>
      <trkpt lat="44.21966" lon="5.11964">
        <ele>238.6345024033</ele>
        <time>2016-07-06T10:16:06Z</time>
      </trkpt>
      <trkpt lat="44.21969" lon="5.11921">
        <ele>242.75708446341</ele>
        <time>2016-07-06T10:16:11Z</time>
      </trkpt>
      <trkpt lat="44.21971" lon="5.11884">
        <ele>245.57343253968</ele>
        <time>2016-07-06T10:16:15Z</time>
      </trkpt>
      <trkpt lat="44.21973" lon="5.11847">
        <ele>247.15143330075</ele>
        <time>2016-07-06T10:16:19Z</time>
      </trkpt>
      <trkpt lat="44.21973" lon="5.11813">
        <ele>249.59515536113</ele>
        <time>2016-07-06T10:16:23Z</time>
      </trkpt>
      <trkpt lat="44.2197" lon="5.1178">
        <ele>252.04196036765</ele>
        <time>2016-07-06T10:16:27Z</time>
      </trkpt>
      <trkpt lat="44.21965" lon="5.1174">
        <ele>248.83852329123</ele>
        <time>2016-07-06T10:16:31Z</time>
      </trkpt>
      <trkpt lat="44.21958" lon="5.11705">
        <ele>244.23711134623</ele>
        <time>2016-07-06T10:16:35Z</time>
      </trkpt>
      <trkpt lat="44.2195" lon="5.11666">
        <ele>242.77366661521</ele>
        <time>2016-07-06T10:16:40Z</time>
      </trkpt>
      <trkpt lat="44.21947" lon="5.11635">
        <ele>243.28146803685</ele>
        <time>2016-07-06T10:16:44Z</time>
      </trkpt>
      <trkpt lat="44.21948" lon="5.1159">
        <ele>243.52247760978</ele>
        <time>2016-07-06T10:16:49Z</time>
      </trkpt>
      <trkpt lat="44.21951" lon="5.11555">
        <ele>243.20986932846</ele>
        <time>2016-07-06T10:16:53Z</time>
      </trkpt>
      <trkpt lat="44.21957" lon="5.11513">
        <ele>239.56539582792</ele>
        <time>2016-07-06T10:16:58Z</time>
      </trkpt>
      <trkpt lat="44.21958" lon="5.11481">
        <ele>238.7533029358</ele>
        <time>2016-07-06T10:17:02Z</time>
      </trkpt>
      <trkpt lat="44.21955" lon="5.1144">
        <ele>240.79611924555</ele>
        <time>2016-07-06T10:17:07Z</time>
      </trkpt>
      <trkpt lat="44.2195" lon="5.1141">
        <ele>241.8734696789</ele>
        <time>2016-07-06T10:17:11Z</time>
      </trkpt>
      <trkpt lat="44.21938" lon="5.11368">
        <ele>242.10694659266</ele>
        <time>2016-07-06T10:17:16Z</time>
      </trkpt>
      <trkpt lat="44.21923" lon="5.11325">
        <ele>238.23372723855</ele>
        <time>2016-07-06T10:17:21Z</time>
      </trkpt>
      <trkpt lat="44.21906" lon="5.11288">
        <ele>234.56141588354</ele>
        <time>2016-07-06T10:17:26Z</time>
      </trkpt>
      <trkpt lat="44.21887" lon="5.11252">
        <ele>232.24586766155</ele>
        <time>2016-07-06T10:17:31Z</time>
      </trkpt>
      <trkpt lat="44.21872" lon="5.11222">
        <ele>231.31196796946</ele>
        <time>2016-07-06T10:17:35Z</time>
      </trkpt>
      <trkpt lat="44.21858" lon="5.11194">
        <ele>230.89633166173</ele>
        <time>2016-07-06T10:17:39Z</time>
      </trkpt>
      <trkpt lat="44.21844" lon="5.11158">
        <ele>230.99940934913</ele>
        <time>2016-07-06T10:17:44Z</time>
      </trkpt>
      <trkpt lat="44.21835" lon="5.11127">
        <ele>232.33846016124</ele>
        <time>2016-07-06T10:17:48Z</time>
      </trkpt>
      <trkpt lat="44.2183" lon="5.11083">
        <ele>233.37760533102</ele>
        <time>2016-07-06T10:17:53Z</time>
      </trkpt>
      <trkpt lat="44.21828" lon="5.11038">
        <ele>232.19723697388</ele>
        <time>2016-07-06T10:17:58Z</time>
      </trkpt>
      <trkpt lat="44.21827" lon="5.11">
        <ele>229.75889555414</ele>
        <time>2016-07-06T10:18:02Z</time>
      </trkpt>
      <trkpt lat="44.21825" lon="5.10957">
        <ele>226.62944392816</ele>
        <time>2016-07-06T10:18:07Z</time>
      </trkpt>
      <trkpt lat="44.21823" lon="5.10924">
        <ele>228.21779578732</ele>
        <time>2016-07-06T10:18:11Z</time>
      </trkpt>
      <trkpt lat="44.21819" lon="5.10882">
        <ele>232.48756360188</ele>
        <time>2016-07-06T10:18:16Z</time>
      </trkpt>
      <trkpt lat="44.21819" lon="5.10844">
        <ele>232.83132483598</ele>
        <time>2016-07-06T10:18:20Z</time>
      </trkpt>
      <trkpt lat="44.21822" lon="5.10806">
        <ele>231.49293680057</ele>
        <time>2016-07-06T10:18:24Z</time>
      </trkpt>
      <trkpt lat="44.21828" lon="5.10767">
        <ele>230.73503871525</ele>
        <time>2016-07-06T10:18:28Z</time>
      </trkpt>
      <trkpt lat="44.21834" lon="5.1072">
        <ele>230.55209462134</ele>
        <time>2016-07-06T10:18:33Z</time>
      </trkpt>
      <trkpt lat="44.21843" lon="5.1067">
        <ele>227.90264007714</ele>
        <time>2016-07-06T10:18:38Z</time>
      </trkpt>
      <trkpt lat="44.21848" lon="5.10631">
        <ele>227.75633362679</ele>
        <time>2016-07-06T10:18:42Z</time>
      </trkpt>
      <trkpt lat="44.21853" lon="5.10596">
        <ele>228.63549967629</ele>
        <time>2016-07-06T10:18:46Z</time>
      </trkpt>
      <trkpt lat="44.2186" lon="5.10557">
        <ele>229.10638693333</ele>
        <time>2016-07-06T10:18:51Z</time>
      </trkpt>
      <trkpt lat="44.21863" lon="5.10516">
        <ele>229.53247430958</ele>
        <time>2016-07-06T10:18:56Z</time>
      </trkpt>
      <trkpt lat="44.21862" lon="5.10481">
        <ele>230.80031126915</ele>
        <time>2016-07-06T10:19:00Z</time>
      </trkpt>
      <trkpt lat="44.21861" lon="5.10441">
        <ele>232.79478050963</ele>
        <time>2016-07-06T10:19:05Z</time>
      </trkpt>
      <trkpt lat="44.21861" lon="5.10406">
        <ele>233.47354132577</ele>
        <time>2016-07-06T10:19:09Z</time>
      </trkpt>
      <trkpt lat="44.21864" lon="5.1036">
        <ele>231.56235211576</ele>
        <time>2016-07-06T10:19:14Z</time>
      </trkpt>
      <trkpt lat="44.21867" lon="5.10324">
        <ele>230.83729217278</ele>
        <time>2016-07-06T10:19:18Z</time>
      </trkpt>
      <trkpt lat="44.21872" lon="5.10282">
        <ele>230.75572603121</ele>
        <time>2016-07-06T10:19:23Z</time>
      </trkpt>
      <trkpt lat="44.21877" lon="5.10246">
        <ele>231.2356890548</ele>
        <time>2016-07-06T10:19:28Z</time>
      </trkpt>
      <trkpt lat="44.21881" lon="5.10209">
        <ele>230.44850379766</ele>
        <time>2016-07-06T10:19:33Z</time>
      </trkpt>
      <trkpt lat="44.21884" lon="5.10178">
        <ele>229.81951137188</ele>
        <time>2016-07-06T10:19:37Z</time>
      </trkpt>
      <trkpt lat="44.21885" lon="5.10141">
        <ele>232.32847396127</ele>
        <time>2016-07-06T10:19:42Z</time>
      </trkpt>
      <trkpt lat="44.21886" lon="5.10104">
        <ele>234.92029027378</ele>
        <time>2016-07-06T10:19:47Z</time>
      </trkpt>
      <trkpt lat="44.21888" lon="5.10074">
        <ele>236.03966550552</ele>
        <time>2016-07-06T10:19:51Z</time>
      </trkpt>
      <trkpt lat="44.21891" lon="5.10036">
        <ele>237.34533516488</ele>
        <time>2016-07-06T10:19:56Z</time>
      </trkpt>
      <trkpt lat="44.21892" lon="5.10005">
        <ele>238.94007908527</ele>
        <time>2016-07-06T10:20:00Z</time>
      </trkpt>
      <trkpt lat="44.21895" lon="5.09968">
        <ele>238.74181780259</ele>
        <time>2016-07-06T10:20:05Z</time>
      </trkpt>
      <trkpt lat="44.21899" lon="5.09927">
        <ele>235.51877230607</ele>
        <time>2016-07-06T10:20:10Z</time>
      </trkpt>
      <trkpt lat="44.21902" lon="5.09893">
        <ele>233.53179951763</ele>
        <time>2016-07-06T10:20:14Z</time>
      </trkpt>
      <trkpt lat="44.21905" lon="5.09861">
        <ele>232.27066480346</ele>
        <time>2016-07-06T10:20:18Z</time>
      </trkpt>
      <trkpt lat="44.21906" lon="5.09824">
        <ele>232.16538117714</ele>
        <time>2016-07-06T10:20:23Z</time>
      </trkpt>
      <trkpt lat="44.21903" lon="5.09792">
        <ele>234.75484546038</ele>
        <time>2016-07-06T10:20:28Z</time>
      </trkpt>
      <trkpt lat="44.21906" lon="5.09764">
        <ele>236.77801767718</ele>
        <time>2016-07-06T10:20:32Z</time>
      </trkpt>
      <trkpt lat="44.21918" lon="5.09725">
        <ele>237.22090022609</ele>
        <time>2016-07-06T10:20:37Z</time>
      </trkpt>
      <trkpt lat="44.21938" lon="5.09696">
        <ele>235.9161638933</ele>
        <time>2016-07-06T10:20:42Z</time>
      </trkpt>
      <trkpt lat="44.2196" lon="5.09681">
        <ele>232.46194361349</ele>
        <time>2016-07-06T10:20:46Z</time>
      </trkpt>
      <trkpt lat="44.21987" lon="5.09662">
        <ele>231.3099035411</ele>
        <time>2016-07-06T10:20:51Z</time>
      </trkpt>
      <trkpt lat="44.22013" lon="5.0964">
        <ele>230.64610388571</ele>
        <time>2016-07-06T10:20:56Z</time>
      </trkpt>
      <trkpt lat="44.22034" lon="5.09621">
        <ele>230.40680928977</ele>
        <time>2016-07-06T10:21:00Z</time>
      </trkpt>
      <trkpt lat="44.22056" lon="5.09602">
        <ele>229.12705780942</ele>
        <time>2016-07-06T10:21:04Z</time>
      </trkpt>
      <trkpt lat="44.22076" lon="5.09584">
        <ele>227.88627346128</ele>
        <time>2016-07-06T10:21:08Z</time>
      </trkpt>
      <trkpt lat="44.22101" lon="5.09561">
        <ele>226.05202339289</ele>
        <time>2016-07-06T10:21:13Z</time>
      </trkpt>
      <trkpt lat="44.22121" lon="5.09542">
        <ele>225.74745443864</ele>
        <time>2016-07-06T10:21:17Z</time>
      </trkpt>
      <trkpt lat="44.22144" lon="5.09517">
        <ele>225.13505052822</ele>
        <time>2016-07-06T10:21:22Z</time>
      </trkpt>
      <trkpt lat="44.22163" lon="5.09498">
        <ele>223.73997596273</ele>
        <time>2016-07-06T10:21:26Z</time>
      </trkpt>
      <trkpt lat="44.2218" lon="5.09481">
        <ele>226.33536382555</ele>
        <time>2016-07-06T10:21:30Z</time>
      </trkpt>
      <trkpt lat="44.22203" lon="5.09457">
        <ele>228.3319527093</ele>
        <time>2016-07-06T10:21:35Z</time>
      </trkpt>
      <trkpt lat="44.22222" lon="5.09437">
        <ele>228.34842435437</ele>
        <time>2016-07-06T10:21:39Z</time>
      </trkpt>
      <trkpt lat="44.22242" lon="5.09416">
        <ele>226.92061705757</ele>
        <time>2016-07-06T10:21:43Z</time>
      </trkpt>
      <trkpt lat="44.22259" lon="5.09398">
        <ele>226.65392858317</ele>
        <time>2016-07-06T10:21:47Z</time>
      </trkpt>
      <trkpt lat="44.22276" lon="5.09379">
        <ele>227.24525426681</ele>
        <time>2016-07-06T10:21:51Z</time>
      </trkpt>
      <trkpt lat="44.22294" lon="5.09358">
        <ele>226.42457326106</ele>
        <time>2016-07-06T10:21:55Z</time>
      </trkpt>
      <trkpt lat="44.22315" lon="5.09329">
        <ele>225.78134634691</ele>
        <time>2016-07-06T10:22:00Z</time>
      </trkpt>
      <trkpt lat="44.22328" lon="5.09302">
        <ele>226.63990460712</ele>
        <time>2016-07-06T10:22:04Z</time>
      </trkpt>
      <trkpt lat="44.22341" lon="5.09264">
        <ele>227.94430919104</ele>
        <time>2016-07-06T10:22:09Z</time>
      </trkpt>
      <trkpt lat="44.22349" lon="5.09234">
        <ele>229.10951728826</ele>
        <time>2016-07-06T10:22:13Z</time>
      </trkpt>
      <trkpt lat="44.22357" lon="5.09207">
        <ele>230.15099673855</ele>
        <time>2016-07-06T10:22:17Z</time>
      </trkpt>
      <trkpt lat="44.22366" lon="5.09171">
        <ele>232.78850895942</ele>
        <time>2016-07-06T10:22:22Z</time>
      </trkpt>
      <trkpt lat="44.22374" lon="5.09144">
        <ele>235.17166014935</ele>
        <time>2016-07-06T10:22:26Z</time>
      </trkpt>
      <trkpt lat="44.22383" lon="5.09117">
        <ele>235.62076401651</ele>
        <time>2016-07-06T10:22:30Z</time>
      </trkpt>
      <trkpt lat="44.22397" lon="5.09085">
        <ele>235.10809995548</ele>
        <time>2016-07-06T10:22:35Z</time>
      </trkpt>
      <trkpt lat="44.22414" lon="5.09053">
        <ele>233.04049350881</ele>
        <time>2016-07-06T10:22:40Z</time>
      </trkpt>
      <trkpt lat="44.22429" lon="5.09031">
        <ele>233.64570352667</ele>
        <time>2016-07-06T10:22:44Z</time>
      </trkpt>
      <trkpt lat="44.22447" lon="5.09002">
        <ele>234.41149949584</ele>
        <time>2016-07-06T10:22:49Z</time>
      </trkpt>
      <trkpt lat="44.22468" lon="5.08972">
        <ele>232.70012200138</ele>
        <time>2016-07-06T10:22:54Z</time>
      </trkpt>
      <trkpt lat="44.22484" lon="5.08949">
        <ele>231.05314943932</ele>
        <time>2016-07-06T10:22:58Z</time>
      </trkpt>
      <trkpt lat="44.22501" lon="5.08927">
        <ele>227.84327895367</ele>
        <time>2016-07-06T10:23:02Z</time>
      </trkpt>
      <trkpt lat="44.22519" lon="5.08906">
        <ele>224.33282552762</ele>
        <time>2016-07-06T10:23:06Z</time>
      </trkpt>
      <trkpt lat="44.22545" lon="5.08881">
        <ele>222.2378499535</ele>
        <time>2016-07-06T10:23:11Z</time>
      </trkpt>
      <trkpt lat="44.22567" lon="5.08863">
        <ele>222.69103143054</ele>
        <time>2016-07-06T10:23:15Z</time>
      </trkpt>
      <trkpt lat="44.22598" lon="5.08842">
        <ele>221.93347992876</ele>
        <time>2016-07-06T10:23:20Z</time>
      </trkpt>
      <trkpt lat="44.22631" lon="5.08831">
        <ele>219.93214321892</ele>
        <time>2016-07-06T10:23:25Z</time>
      </trkpt>
      <trkpt lat="44.22661" lon="5.08828">
        <ele>216.0815761318</ele>
        <time>2016-07-06T10:23:30Z</time>
      </trkpt>
      <trkpt lat="44.22687" lon="5.08827">
        <ele>211.79341679829</ele>
        <time>2016-07-06T10:23:34Z</time>
      </trkpt>
      <trkpt lat="44.2272" lon="5.08828">
        <ele>205.29963820772</ele>
        <time>2016-07-06T10:23:39Z</time>
      </trkpt>
      <trkpt lat="44.22749" lon="5.08831">
        <ele>203.77586792861</ele>
        <time>2016-07-06T10:23:43Z</time>
      </trkpt>
      <trkpt lat="44.22772" lon="5.08831">
        <ele>204.9207091386</ele>
        <time>2016-07-06T10:23:47Z</time>
      </trkpt>
      <trkpt lat="44.22799" lon="5.08832">
        <ele>208.12019584551</ele>
        <time>2016-07-06T10:23:52Z</time>
      </trkpt>
      <trkpt lat="44.22828" lon="5.08832">
        <ele>209.28857699591</ele>
        <time>2016-07-06T10:23:57Z</time>
      </trkpt>
      <trkpt lat="44.22856" lon="5.08832">
        <ele>211.04447160784</ele>
        <time>2016-07-06T10:24:02Z</time>
      </trkpt>
      <trkpt lat="44.2288" lon="5.08837">
        <ele>211.80075792953</ele>
        <time>2016-07-06T10:24:06Z</time>
      </trkpt>
      <trkpt lat="44.22904" lon="5.08847">
        <ele>212.24516281772</ele>
        <time>2016-07-06T10:24:10Z</time>
      </trkpt>
      <trkpt lat="44.22934" lon="5.08865">
        <ele>215.06447195217</ele>
        <time>2016-07-06T10:24:15Z</time>
      </trkpt>
      <trkpt lat="44.22958" lon="5.0888">
        <ele>217.88996947778</ele>
        <time>2016-07-06T10:24:19Z</time>
      </trkpt>
      <trkpt lat="44.22989" lon="5.08898">
        <ele>218.96394253332</ele>
        <time>2016-07-06T10:24:24Z</time>
      </trkpt>
      <trkpt lat="44.23013" lon="5.0891">
        <ele>218.56748294032</ele>
        <time>2016-07-06T10:24:28Z</time>
      </trkpt>
      <trkpt lat="44.23038" lon="5.0892">
        <ele>216.25957504828</ele>
        <time>2016-07-06T10:24:32Z</time>
      </trkpt>
      <trkpt lat="44.23062" lon="5.08929">
        <ele>214.05756232183</ele>
        <time>2016-07-06T10:24:36Z</time>
      </trkpt>
      <trkpt lat="44.23086" lon="5.08938">
        <ele>213.98296619365</ele>
        <time>2016-07-06T10:24:41Z</time>
      </trkpt>
      <trkpt lat="44.23106" lon="5.08946">
        <ele>213.83126828261</ele>
        <time>2016-07-06T10:24:45Z</time>
      </trkpt>
      <trkpt lat="44.23132" lon="5.08954">
        <ele>210.67680267132</ele>
        <time>2016-07-06T10:24:49Z</time>
      </trkpt>
      <trkpt lat="44.23154" lon="5.0896">
        <ele>208.57229272843</ele>
        <time>2016-07-06T10:24:53Z</time>
      </trkpt>
      <trkpt lat="44.23177" lon="5.08966">
        <ele>209.75766001694</ele>
        <time>2016-07-06T10:24:57Z</time>
      </trkpt>
      <trkpt lat="44.23201" lon="5.08971">
        <ele>210.75850138957</ele>
        <time>2016-07-06T10:25:01Z</time>
      </trkpt>
      <trkpt lat="44.23224" lon="5.08971">
        <ele>211.82931175814</ele>
        <time>2016-07-06T10:25:05Z</time>
      </trkpt>
      <trkpt lat="44.23247" lon="5.08967">
        <ele>211.89417375611</ele>
        <time>2016-07-06T10:25:09Z</time>
      </trkpt>
      <trkpt lat="44.23267" lon="5.08962">
        <ele>212.02353903957</ele>
        <time>2016-07-06T10:25:13Z</time>
      </trkpt>
      <trkpt lat="44.2329" lon="5.08955">
        <ele>211.67354591528</ele>
        <time>2016-07-06T10:25:17Z</time>
      </trkpt>
      <trkpt lat="44.23312" lon="5.08943">
        <ele>208.89029995726</ele>
        <time>2016-07-06T10:25:21Z</time>
      </trkpt>
      <trkpt lat="44.23337" lon="5.08934">
        <ele>206.25676589179</ele>
        <time>2016-07-06T10:25:26Z</time>
      </trkpt>
      <trkpt lat="44.23354" lon="5.08943">
        <ele>206.42057804047</ele>
        <time>2016-07-06T10:25:31Z</time>
      </trkpt>
      <trkpt lat="44.23368" lon="5.08935">
        <ele>207.91310470373</ele>
        <time>2016-07-06T10:25:35Z</time>
      </trkpt>
      <trkpt lat="44.23383" lon="5.08919">
        <ele>209.89431906795</ele>
        <time>2016-07-06T10:25:40Z</time>
      </trkpt>
      <trkpt lat="44.234" lon="5.08909">
        <ele>210.13355302479</ele>
        <time>2016-07-06T10:25:45Z</time>
      </trkpt>
      <trkpt lat="44.23416" lon="5.08922">
        <ele>210.26116125565</ele>
        <time>2016-07-06T10:25:50Z</time>
      </trkpt>
      <trkpt lat="44.23423" lon="5.08936">
        <ele>212.33401687547</ele>
        <time>2016-07-06T10:25:54Z</time>
      </trkpt>
      <trkpt lat="44.23428" lon="5.08947">
        <ele>212.93323393166</ele>
        <time>2016-07-06T10:25:59Z</time>
      </trkpt>
      <trkpt lat="44.23428" lon="5.08956">
        <ele>213.78408264278</ele>
        <time>2016-07-06T10:26:03Z</time>
      </trkpt>
      <trkpt lat="44.23432" lon="5.08965">
        <ele>214.89306822208</ele>
        <time>2016-07-06T10:26:07Z</time>
      </trkpt>
      <trkpt lat="44.23438" lon="5.08977">
        <ele>216.19726033336</ele>
        <time>2016-07-06T10:26:12Z</time>
      </trkpt>
      <trkpt lat="44.23444" lon="5.08984">
        <ele>217.23946886939</ele>
        <time>2016-07-06T10:26:18Z</time>
      </trkpt>
      <trkpt lat="44.23448" lon="5.08973">
        <ele>218.18356755622</ele>
        <time>2016-07-06T10:26:27Z</time>
      </trkpt>
      <trkpt lat="44.23444" lon="5.08961">
        <ele>218.87404503872</ele>
        <time>2016-07-06T10:26:31Z</time>
      </trkpt>
      <trkpt lat="44.23442" lon="5.08941">
        <ele>219.67570767308</ele>
        <time>2016-07-06T10:26:36Z</time>
      </trkpt>
      <trkpt lat="44.23454" lon="5.08923">
        <ele>220.3288578824</ele>
        <time>2016-07-06T10:26:40Z</time>
      </trkpt>
      <trkpt lat="44.23466" lon="5.08905">
        <ele>220.55467959103</ele>
        <time>2016-07-06T10:26:45Z</time>
      </trkpt>
      <trkpt lat="44.23473" lon="5.08895">
        <ele>220.78051343508</ele>
        <time>2016-07-06T10:26:50Z</time>
      </trkpt>
      <trkpt lat="44.23483" lon="5.08884">
        <ele>220.7951831953</ele>
        <time>2016-07-06T10:26:55Z</time>
      </trkpt>
      <trkpt lat="44.23491" lon="5.08883">
        <ele>220.12890647336</ele>
        <time>2016-07-06T10:27:02Z</time>
      </trkpt>
      <trkpt lat="44.23497" lon="5.08893">
        <ele>221.00350886911</ele>
        <time>2016-07-06T10:27:07Z</time>
      </trkpt>
      <trkpt lat="44.23502" lon="5.08902">
        <ele>218.98745996989</ele>
        <time>2016-07-06T10:31:14Z</time>
      </trkpt>
      <trkpt lat="44.23508" lon="5.08907">
        <ele>215.39672565424</ele>
        <time>2016-07-06T10:34:03Z</time>
      </trkpt>
      <trkpt lat="44.23503" lon="5.08898">
        <ele>212.95983278931</ele>
        <time>2016-07-06T10:37:07Z</time>
      </trkpt>
      <trkpt lat="44.23498" lon="5.08889">
        <ele>213.02713513744</ele>
        <time>2016-07-06T10:37:13Z</time>
      </trkpt>
      <trkpt lat="44.23494" lon="5.08881">
        <ele>213.08517175384</ele>
        <time>2016-07-06T10:37:17Z</time>
      </trkpt>
      <trkpt lat="44.23485" lon="5.08886">
        <ele>213.0526032298</ele>
        <time>2016-07-06T10:37:22Z</time>
      </trkpt>
      <trkpt lat="44.23477" lon="5.08894">
        <ele>213.42789555256</ele>
        <time>2016-07-06T10:37:26Z</time>
      </trkpt>
      <trkpt lat="44.23462" lon="5.0891">
        <ele>214.02798784729</ele>
        <time>2016-07-06T10:37:31Z</time>
      </trkpt>
      <trkpt lat="44.23452" lon="5.08921">
        <ele>214.85214753987</ele>
        <time>2016-07-06T10:37:36Z</time>
      </trkpt>
      <trkpt lat="44.2345" lon="5.0893">
        <ele>215.45562230861</ele>
        <time>2016-07-06T10:37:40Z</time>
      </trkpt>
      <trkpt lat="44.23451" lon="5.08944">
        <ele>216.11375325679</ele>
        <time>2016-07-06T10:37:44Z</time>
      </trkpt>
      <trkpt lat="44.23452" lon="5.08962">
        <ele>216.92565348416</ele>
        <time>2016-07-06T10:37:49Z</time>
      </trkpt>
      <trkpt lat="44.23452" lon="5.08976">
        <ele>217.52594268914</ele>
        <time>2016-07-06T10:37:53Z</time>
      </trkpt>
      <trkpt lat="44.23445" lon="5.08988">
        <ele>218.14072435624</ele>
        <time>2016-07-06T10:37:58Z</time>
      </trkpt>
      <trkpt lat="44.23433" lon="5.09009">
        <ele>218.81708354257</ele>
        <time>2016-07-06T10:38:03Z</time>
      </trkpt>
      <trkpt lat="44.23436" lon="5.09025">
        <ele>219.14760136657</ele>
        <time>2016-07-06T10:38:08Z</time>
      </trkpt>
      <trkpt lat="44.23444" lon="5.0904">
        <ele>219.20049922332</ele>
        <time>2016-07-06T10:38:12Z</time>
      </trkpt>
      <trkpt lat="44.23443" lon="5.09056">
        <ele>219.30769591006</ele>
        <time>2016-07-06T10:38:16Z</time>
      </trkpt>
      <trkpt lat="44.23441" lon="5.09071">
        <ele>219.852808672</ele>
        <time>2016-07-06T10:38:20Z</time>
      </trkpt>
      <trkpt lat="44.23449" lon="5.09082">
        <ele>220.1995345542</ele>
        <time>2016-07-06T10:38:24Z</time>
      </trkpt>
      <trkpt lat="44.23462" lon="5.09083">
        <ele>220.62941092856</ele>
        <time>2016-07-06T10:38:28Z</time>
      </trkpt>
      <trkpt lat="44.23482" lon="5.09076">
        <ele>221.12815547569</ele>
        <time>2016-07-06T10:38:33Z</time>
      </trkpt>
      <trkpt lat="44.23499" lon="5.09064">
        <ele>221.34482920499</ele>
        <time>2016-07-06T10:38:38Z</time>
      </trkpt>
      <trkpt lat="44.23506" lon="5.0905">
        <ele>221.76406150751</ele>
        <time>2016-07-06T10:38:42Z</time>
      </trkpt>
      <trkpt lat="44.23505" lon="5.0903">
        <ele>222.32173102588</ele>
        <time>2016-07-06T10:38:47Z</time>
      </trkpt>
      <trkpt lat="44.23502" lon="5.09014">
        <ele>222.97266933736</ele>
        <time>2016-07-06T10:38:51Z</time>
      </trkpt>
      <trkpt lat="44.23513" lon="5.08999">
        <ele>228.06008295782</ele>
        <time>2016-07-06T10:38:55Z</time>
      </trkpt>
      <trkpt lat="44.23528" lon="5.08988">
        <ele>230.14883224782</ele>
        <time>2016-07-06T10:39:00Z</time>
      </trkpt>
      <trkpt lat="44.23545" lon="5.08978">
        <ele>230.15976173934</ele>
        <time>2016-07-06T10:39:05Z</time>
      </trkpt>
      <trkpt lat="44.23558" lon="5.0897">
        <ele>230.34101762052</ele>
        <time>2016-07-06T10:39:09Z</time>
      </trkpt>
      <trkpt lat="44.2357" lon="5.08964">
        <ele>230.35339717351</ele>
        <time>2016-07-06T10:39:13Z</time>
      </trkpt>
      <trkpt lat="44.23589" lon="5.08952">
        <ele>230.30334340364</ele>
        <time>2016-07-06T10:39:18Z</time>
      </trkpt>
      <trkpt lat="44.23597" lon="5.08949">
        <ele>230.1494377741</ele>
        <time>2016-07-06T10:39:23Z</time>
      </trkpt>
      <trkpt lat="44.23604" lon="5.08947">
        <ele>230.09743123157</ele>
        <time>2016-07-06T10:39:27Z</time>
      </trkpt>
      <trkpt lat="44.23614" lon="5.08947">
        <ele>230.0787065601</ele>
        <time>2016-07-06T10:39:31Z</time>
      </trkpt>
      <trkpt lat="44.23623" lon="5.08952">
        <ele>230.99281172998</ele>
        <time>2016-07-06T10:39:36Z</time>
      </trkpt>
      <trkpt lat="44.2363" lon="5.0896">
        <ele>232.09531202925</ele>
        <time>2016-07-06T10:39:41Z</time>
      </trkpt>
      <trkpt lat="44.23633" lon="5.08972">
        <ele>232.86285225612</ele>
        <time>2016-07-06T10:39:46Z</time>
      </trkpt>
      <trkpt lat="44.23638" lon="5.0898">
        <ele>233.70022227879</ele>
        <time>2016-07-06T10:39:50Z</time>
      </trkpt>
      <trkpt lat="44.23644" lon="5.08986">
        <ele>234.60478616159</ele>
        <time>2016-07-06T10:39:56Z</time>
      </trkpt>
      <trkpt lat="44.23643" lon="5.08998">
        <ele>235.08079166193</ele>
        <time>2016-07-06T10:40:02Z</time>
      </trkpt>
      <trkpt lat="44.23647" lon="5.09009">
        <ele>235.37554210322</ele>
        <time>2016-07-06T10:40:14Z</time>
      </trkpt>
      <trkpt lat="44.23647" lon="5.08997">
        <ele>235.14744816581</ele>
        <time>2016-07-06T10:40:31Z</time>
      </trkpt>
      <trkpt lat="44.23643" lon="5.09">
        <ele>234.7947080696</ele>
        <time>2016-07-06T10:40:59Z</time>
      </trkpt>
      <trkpt lat="44.23643" lon="5.09">
        <ele>234.7947080696</ele>
        <time>2016-07-06T10:40:59Z</time>
      </trkpt>
    </trkseg>
  </trk>
</gpx>